MFX3303 UZTT-OEJN
Flight info
| Callsign | MFX3303 |
|---|---|
| Flight time | 6h 6m |
| Altitude | 36000 |
| Route | KUFIM2A KUFIM L170 MOSOM A114 OLRAM L148 AMDAR/N0489F290 A454 KHOLM/N0480F280 M375 BOTAN/N0485F320 M375 PAROD/N0492F310 V390 SERKA/N0480F370 B466 KALAT/N0485F380 G325 PG J215 TU J185 BIVIN R462 VUSET T500 MCT T506 TULBU M440 MIDGU/N0491F280 M440 KATIT M628 MIGMA M550 MEVDO Y511 ITRUX/N0483F380 Y511 ASMIS T218 IMGUT M309 VEMEM |
| Aircraft | A333/H-SDE3GHIJ2J3J5M1RVWXY/LB2D1 |
Departure
| Time | 2026-05-05 12:47 |
|---|---|
| Airport | Tashkent International Airport (UZTT) |
Arrival
| Time | 2026-05-05 18:53 |
|---|---|
| Airport | King Abdulaziz International Airport (OEJN) |
| Time | Latitude | Longitude | Altitude | Speed | Heading |
|---|---|---|---|---|---|
| 2026-05-05 11:59 | 41.25979 | 69.27211 | 1433 ft | 0 kts | 262° |
| 2026-05-05 12:37 | 41.25979 | 69.27209 | 1433 ft | 0 kts | 262° |
| 2026-05-05 12:37 | 41.25979 | 69.27203 | 1433 ft | 1 kts | 263° |
| 2026-05-05 12:37 | 41.25977 | 69.27188 | 1433 ft | 2 kts | 265° |
| 2026-05-05 12:37 | 41.25978 | 69.27163 | 1433 ft | 2 kts | 280° |
| 2026-05-05 12:38 | 41.25991 | 69.27141 | 1433 ft | 3 kts | 324° |
| 2026-05-05 12:38 | 41.26014 | 69.27142 | 1433 ft | 3 kts | 30° |
| 2026-05-05 12:38 | 41.26030 | 69.27176 | 1433 ft | 5 kts | 63° |
| 2026-05-05 12:38 | 41.26042 | 69.27223 | 1433 ft | 5 kts | 90° |
| 2026-05-05 12:39 | 41.26026 | 69.27277 | 1433 ft | 6 kts | 128° |
| 2026-05-05 12:39 | 41.25988 | 69.27328 | 1433 ft | 7 kts | 138° |
| 2026-05-05 12:39 | 41.25944 | 69.27378 | 1433 ft | 8 kts | 138° |
| 2026-05-05 12:39 | 41.25896 | 69.27435 | 1433 ft | 9 kts | 138° |
| 2026-05-05 12:40 | 41.25843 | 69.27489 | 1433 ft | 9 kts | 161° |
| 2026-05-05 12:40 | 41.25781 | 69.27468 | 1433 ft | 9 kts | 225° |
| 2026-05-05 12:40 | 41.25762 | 69.27383 | 1433 ft | 9 kts | 262° |
| 2026-05-05 12:40 | 41.25753 | 69.27291 | 1433 ft | 10 kts | 262° |
| 2026-05-05 12:41 | 41.25743 | 69.27195 | 1433 ft | 10 kts | 262° |
| 2026-05-05 12:41 | 41.25733 | 69.27098 | 1433 ft | 10 kts | 262° |
| 2026-05-05 12:41 | 41.25722 | 69.26997 | 1433 ft | 11 kts | 261° |
| 2026-05-05 12:41 | 41.25711 | 69.26895 | 1433 ft | 11 kts | 261° |
| 2026-05-05 12:42 | 41.25700 | 69.26792 | 1433 ft | 11 kts | 262° |
| 2026-05-05 12:42 | 41.25689 | 69.26687 | 1433 ft | 11 kts | 261° |
| 2026-05-05 12:42 | 41.25676 | 69.26580 | 1433 ft | 11 kts | 261° |
| 2026-05-05 12:42 | 41.25664 | 69.26472 | 1433 ft | 11 kts | 261° |
| 2026-05-05 12:43 | 41.25651 | 69.26359 | 1433 ft | 11 kts | 262° |
| 2026-05-05 12:43 | 41.25640 | 69.26247 | 1433 ft | 11 kts | 261° |
| 2026-05-05 12:43 | 41.25628 | 69.26135 | 1433 ft | 11 kts | 262° |
| 2026-05-05 12:43 | 41.25617 | 69.26026 | 1433 ft | 12 kts | 262° |
| 2026-05-05 12:44 | 41.25605 | 69.25915 | 1433 ft | 12 kts | 261° |
| 2026-05-05 12:44 | 41.25579 | 69.25813 | 1433 ft | 10 kts | 219° |
| 2026-05-05 12:44 | 41.25507 | 69.25804 | 1433 ft | 10 kts | 173° |
| 2026-05-05 12:44 | 41.25431 | 69.25824 | 1433 ft | 10 kts | 157° |
| 2026-05-05 12:45 | 41.25412 | 69.25901 | 1433 ft | 9 kts | 84° |
| 2026-05-05 12:45 | 41.25413 | 69.25919 | 1433 ft | 0 kts | 82° |
| 2026-05-05 12:46 | 41.25433 | 69.26097 | 1433 ft | 49 kts | 81° |
| 2026-05-05 12:46 | 41.25521 | 69.26896 | 1433 ft | 115 kts | 81° |
| 2026-05-05 12:46 | 41.25673 | 69.28272 | 1434 ft | 169 kts | 81° |
| 2026-05-05 12:47 | 41.25864 | 69.30066 | 1701 ft | 193 kts | 81° |
| 2026-05-05 12:47 | 41.26047 | 69.31799 | 2397 ft | 189 kts | 82° |
| 2026-05-05 12:47 | 41.26219 | 69.33497 | 3069 ft | 188 kts | 82° |
| 2026-05-05 12:47 | 41.26369 | 69.35287 | 3467 ft | 190 kts | 83° |
| 2026-05-05 12:48 | 41.26285 | 69.37048 | 3745 ft | 195 kts | 118° |
| 2026-05-05 12:48 | 41.25342 | 69.38284 | 3943 ft | 198 kts | 165° |
| 2026-05-05 12:48 | 41.23995 | 69.38211 | 4145 ft | 202 kts | 211° |
| 2026-05-05 12:48 | 41.22930 | 69.36986 | 4372 ft | 210 kts | 229° |
| 2026-05-05 12:49 | 41.21914 | 69.35490 | 4605 ft | 222 kts | 227° |
| 2026-05-05 12:49 | 41.20795 | 69.33988 | 4859 ft | 236 kts | 224° |
| 2026-05-05 12:49 | 41.19562 | 69.32462 | 5119 ft | 250 kts | 223° |
| 2026-05-05 12:49 | 41.18227 | 69.30891 | 5380 ft | 264 kts | 222° |
| 2026-05-05 12:50 | 41.16827 | 69.29268 | 5742 ft | 273 kts | 224° |
| 2026-05-05 12:50 | 41.15670 | 69.27280 | 6275 ft | 274 kts | 244° |
| 2026-05-05 12:50 | 41.15122 | 69.24857 | 6842 ft | 275 kts | 259° |
| 2026-05-05 12:50 | 41.14783 | 69.22366 | 7375 ft | 276 kts | 252° |
| 2026-05-05 12:51 | 41.13851 | 69.20160 | 7865 ft | 278 kts | 230° |
| 2026-05-05 12:51 | 41.12588 | 69.18230 | 8395 ft | 280 kts | 227° |
| 2026-05-05 12:51 | 41.11278 | 69.16307 | 8915 ft | 282 kts | 227° |
| 2026-05-05 12:51 | 41.09985 | 69.14359 | 9420 ft | 284 kts | 228° |
| 2026-05-05 12:52 | 41.08695 | 69.12367 | 9923 ft | 287 kts | 229° |
| 2026-05-05 12:52 | 41.07413 | 69.10353 | 10336 ft | 293 kts | 229° |
| 2026-05-05 12:52 | 41.06080 | 69.08240 | 10566 ft | 306 kts | 229° |
| 2026-05-05 12:52 | 41.04683 | 69.06013 | 10798 ft | 318 kts | 229° |
| 2026-05-05 12:53 | 41.03249 | 69.03719 | 11026 ft | 331 kts | 229° |
| 2026-05-05 12:53 | 41.01761 | 69.01335 | 11318 ft | 341 kts | 229° |
| 2026-05-05 12:53 | 41.00251 | 68.98914 | 11813 ft | 344 kts | 229° |
| 2026-05-05 12:53 | 40.98730 | 68.96474 | 12364 ft | 345 kts | 230° |
| 2026-05-05 12:54 | 40.95665 | 68.91566 | 13455 ft | 349 kts | 230° |
| 2026-05-05 12:54 | 40.94114 | 68.89084 | 14002 ft | 350 kts | 231° |
| 2026-05-05 12:54 | 40.92562 | 68.86601 | 14540 ft | 352 kts | 231° |
| 2026-05-05 12:55 | 40.91004 | 68.84106 | 15065 ft | 354 kts | 231° |
| 2026-05-05 12:55 | 40.89433 | 68.81591 | 15588 ft | 356 kts | 231° |
| 2026-05-05 12:55 | 40.87864 | 68.79082 | 16107 ft | 359 kts | 231° |
| 2026-05-05 12:55 | 40.86266 | 68.76533 | 16628 ft | 361 kts | 231° |
| 2026-05-05 12:56 | 40.84668 | 68.73987 | 17145 ft | 363 kts | 231° |
| 2026-05-05 12:56 | 40.83050 | 68.71420 | 17662 ft | 365 kts | 229° |
| 2026-05-05 12:56 | 40.81186 | 68.69151 | 18154 ft | 369 kts | 217° |
| 2026-05-05 12:56 | 40.78960 | 68.67432 | 18656 ft | 374 kts | 206° |
| 2026-05-05 12:57 | 40.76509 | 68.66246 | 19162 ft | 377 kts | 200° |
| 2026-05-05 12:57 | 40.74040 | 68.65207 | 19652 ft | 380 kts | 200° |
| 2026-05-05 12:57 | 40.71528 | 68.64163 | 20134 ft | 382 kts | 200° |
| 2026-05-05 12:57 | 40.68964 | 68.63066 | 20615 ft | 384 kts | 201° |
| 2026-05-05 12:58 | 40.66442 | 68.61931 | 21072 ft | 387 kts | 201° |
| 2026-05-05 12:58 | 40.63908 | 68.60777 | 21523 ft | 389 kts | 201° |
| 2026-05-05 12:58 | 40.61373 | 68.59626 | 21955 ft | 391 kts | 201° |
| 2026-05-05 12:58 | 40.58801 | 68.58463 | 22379 ft | 393 kts | 201° |
| 2026-05-05 12:59 | 40.56205 | 68.57293 | 22793 ft | 396 kts | 201° |
| 2026-05-05 12:59 | 40.53606 | 68.56158 | 23195 ft | 398 kts | 201° |
| 2026-05-05 12:59 | 40.50975 | 68.55031 | 23588 ft | 400 kts | 200° |
| 2026-05-05 13:00 | 40.45665 | 68.52844 | 24345 ft | 404 kts | 200° |
| 2026-05-05 13:00 | 40.42947 | 68.51730 | 24716 ft | 406 kts | 200° |
| 2026-05-05 13:01 | 40.34825 | 68.48397 | 25762 ft | 412 kts | 200° |
| 2026-05-05 13:01 | 40.32103 | 68.47280 | 26092 ft | 414 kts | 200° |
| 2026-05-05 13:01 | 40.29376 | 68.46162 | 26418 ft | 416 kts | 200° |
| 2026-05-05 13:01 | 40.26598 | 68.45023 | 26737 ft | 418 kts | 200° |
| 2026-05-05 13:02 | 40.23852 | 68.43898 | 27039 ft | 419 kts | 200° |
| 2026-05-05 13:02 | 40.21047 | 68.42750 | 27343 ft | 421 kts | 200° |
| 2026-05-05 13:02 | 40.18265 | 68.41612 | 27639 ft | 423 kts | 200° |
| 2026-05-05 13:02 | 40.15461 | 68.40466 | 27928 ft | 424 kts | 200° |
| 2026-05-05 13:03 | 40.12648 | 68.39318 | 28211 ft | 426 kts | 200° |
| 2026-05-05 13:03 | 40.09826 | 68.38167 | 28489 ft | 428 kts | 201° |
| 2026-05-05 13:03 | 40.06983 | 68.37008 | 28753 ft | 429 kts | 201° |
| 2026-05-05 13:03 | 40.04157 | 68.35857 | 29011 ft | 431 kts | 201° |
| 2026-05-05 13:04 | 40.01252 | 68.34676 | 29275 ft | 433 kts | 200° |
| 2026-05-05 13:04 | 39.98403 | 68.33518 | 29531 ft | 434 kts | 200° |
| 2026-05-05 13:04 | 39.95503 | 68.32340 | 29781 ft | 436 kts | 200° |
| 2026-05-05 13:04 | 39.92580 | 68.31154 | 30030 ft | 438 kts | 200° |
| 2026-05-05 13:05 | 39.89668 | 68.29974 | 30274 ft | 439 kts | 200° |
| 2026-05-05 13:05 | 39.86741 | 68.28788 | 30517 ft | 441 kts | 200° |
| 2026-05-05 13:05 | 39.83834 | 68.27612 | 30751 ft | 442 kts | 200° |
| 2026-05-05 13:05 | 39.80889 | 68.26421 | 30985 ft | 444 kts | 200° |
| 2026-05-05 13:06 | 39.77942 | 68.25230 | 31214 ft | 445 kts | 200° |
| 2026-05-05 13:06 | 39.74984 | 68.24036 | 31442 ft | 446 kts | 200° |
| 2026-05-05 13:06 | 39.72042 | 68.22851 | 31659 ft | 448 kts | 200° |
| 2026-05-05 13:06 | 39.69076 | 68.21655 | 31865 ft | 449 kts | 200° |
| 2026-05-05 13:07 | 39.66079 | 68.20448 | 32091 ft | 450 kts | 200° |
| 2026-05-05 13:07 | 39.63079 | 68.19243 | 32382 ft | 450 kts | 200° |
| 2026-05-05 13:07 | 39.60130 | 68.18059 | 32689 ft | 448 kts | 200° |
| 2026-05-05 13:07 | 39.57180 | 68.16875 | 32980 ft | 447 kts | 200° |
| 2026-05-05 13:08 | 39.54188 | 68.15730 | 33253 ft | 447 kts | 199° |
| 2026-05-05 13:08 | 39.51204 | 68.14656 | 33511 ft | 447 kts | 199° |
| 2026-05-05 13:08 | 39.48230 | 68.13601 | 33772 ft | 446 kts | 199° |
| 2026-05-05 13:08 | 39.45217 | 68.12531 | 34033 ft | 445 kts | 199° |
| 2026-05-05 13:09 | 39.42255 | 68.11477 | 34276 ft | 444 kts | 199° |
| 2026-05-05 13:09 | 39.39278 | 68.10415 | 34486 ft | 445 kts | 199° |
| 2026-05-05 13:09 | 39.36322 | 68.09359 | 34664 ft | 445 kts | 199° |
| 2026-05-05 13:09 | 39.33316 | 68.08285 | 34834 ft | 446 kts | 199° |
| 2026-05-05 13:10 | 39.30347 | 68.07224 | 35003 ft | 447 kts | 199° |
| 2026-05-05 13:10 | 39.27382 | 68.06167 | 35175 ft | 447 kts | 199° |
| 2026-05-05 13:10 | 39.24359 | 68.05090 | 35347 ft | 448 kts | 199° |
| 2026-05-05 13:10 | 39.21370 | 68.04024 | 35511 ft | 448 kts | 199° |
| 2026-05-05 13:11 | 39.18395 | 68.02966 | 35671 ft | 449 kts | 199° |
| 2026-05-05 13:11 | 39.15376 | 68.01893 | 35826 ft | 449 kts | 199° |
| 2026-05-05 13:11 | 39.12362 | 68.00822 | 35975 ft | 450 kts | 199° |
| 2026-05-05 13:11 | 39.09371 | 67.99761 | 36071 ft | 451 kts | 199° |
| 2026-05-05 13:12 | 39.03311 | 67.97614 | 36079 ft | 451 kts | 199° |
| 2026-05-05 13:12 | 38.97315 | 67.95328 | 36080 ft | 451 kts | 201° |
| 2026-05-05 13:13 | 38.91323 | 67.92934 | 36080 ft | 454 kts | 201° |
| 2026-05-05 13:13 | 38.85275 | 67.90538 | 36080 ft | 457 kts | 202° |
| 2026-05-05 13:14 | 38.79224 | 67.88154 | 36081 ft | 457 kts | 201° |
| 2026-05-05 13:14 | 38.73169 | 67.85778 | 36081 ft | 457 kts | 201° |
| 2026-05-05 13:15 | 38.67097 | 67.83434 | 36081 ft | 457 kts | 201° |
| 2026-05-05 13:15 | 38.61038 | 67.81131 | 36081 ft | 457 kts | 201° |
| 2026-05-05 13:16 | 38.54961 | 67.78822 | 36081 ft | 457 kts | 201° |
| 2026-05-05 13:16 | 38.48888 | 67.76514 | 36081 ft | 457 kts | 201° |
| 2026-05-05 13:17 | 38.42813 | 67.74212 | 36081 ft | 457 kts | 201° |
| 2026-05-05 13:17 | 38.36733 | 67.71910 | 36081 ft | 457 kts | 201° |
| 2026-05-05 13:18 | 38.30658 | 67.69614 | 36081 ft | 457 kts | 201° |
| 2026-05-05 13:18 | 38.24609 | 67.67333 | 36081 ft | 458 kts | 201° |
| 2026-05-05 13:19 | 38.18479 | 67.65234 | 36079 ft | 459 kts | 199° |
| 2026-05-05 13:19 | 38.12299 | 67.63252 | 36061 ft | 459 kts | 199° |
| 2026-05-05 13:20 | 38.06117 | 67.61272 | 36035 ft | 459 kts | 199° |
| 2026-05-05 13:20 | 37.99962 | 67.59305 | 36015 ft | 459 kts | 199° |
| 2026-05-05 13:21 | 37.93794 | 67.57339 | 36006 ft | 459 kts | 199° |
| 2026-05-05 13:21 | 37.87633 | 67.55378 | 36002 ft | 459 kts | 199° |
| 2026-05-05 13:22 | 37.81462 | 67.53418 | 36002 ft | 459 kts | 199° |
| 2026-05-05 13:22 | 37.75284 | 67.51459 | 36002 ft | 459 kts | 199° |
| 2026-05-05 13:23 | 37.69121 | 67.49506 | 36002 ft | 459 kts | 199° |
| 2026-05-05 13:23 | 37.62963 | 67.47560 | 36002 ft | 459 kts | 199° |
| 2026-05-05 13:24 | 37.56778 | 67.45609 | 36002 ft | 459 kts | 199° |
| 2026-05-05 13:24 | 37.50619 | 67.43668 | 36002 ft | 459 kts | 199° |
| 2026-05-05 13:25 | 37.44437 | 67.41724 | 36002 ft | 459 kts | 199° |
| 2026-05-05 13:25 | 37.38273 | 67.39789 | 36002 ft | 459 kts | 199° |
| 2026-05-05 13:26 | 37.32083 | 67.37849 | 36002 ft | 459 kts | 199° |
| 2026-05-05 13:26 | 37.25758 | 67.36592 | 36001 ft | 467 kts | 187° |
| 2026-05-05 13:27 | 37.19262 | 67.37226 | 36002 ft | 476 kts | 173° |
| 2026-05-05 13:27 | 37.12982 | 67.39820 | 36002 ft | 485 kts | 159° |
| 2026-05-05 13:28 | 37.07023 | 67.43851 | 36001 ft | 489 kts | 155° |
| 2026-05-05 13:28 | 37.01078 | 67.48037 | 36000 ft | 494 kts | 155° |
| 2026-05-05 13:29 | 36.95067 | 67.52219 | 36000 ft | 499 kts | 156° |
| 2026-05-05 13:29 | 36.88908 | 67.56471 | 36001 ft | 501 kts | 156° |
| 2026-05-05 13:30 | 36.82495 | 67.60890 | 36002 ft | 501 kts | 156° |
| 2026-05-05 13:30 | 36.75863 | 67.64596 | 36001 ft | 491 kts | 169° |
| 2026-05-05 13:31 | 36.69021 | 67.65842 | 36002 ft | 478 kts | 186° |
| 2026-05-05 13:31 | 36.62397 | 67.64780 | 36002 ft | 465 kts | 202° |
| 2026-05-05 13:32 | 36.56229 | 67.62420 | 36002 ft | 461 kts | 204° |
| 2026-05-05 13:32 | 36.50140 | 67.60020 | 36002 ft | 462 kts | 204° |
| 2026-05-05 13:33 | 36.44018 | 67.57647 | 36001 ft | 462 kts | 204° |
| 2026-05-05 13:33 | 36.37908 | 67.55300 | 36002 ft | 462 kts | 204° |
| 2026-05-05 13:34 | 36.31791 | 67.52958 | 36002 ft | 463 kts | 204° |
| 2026-05-05 13:34 | 36.25664 | 67.50614 | 36001 ft | 462 kts | 204° |
| 2026-05-05 13:35 | 36.19527 | 67.48258 | 36002 ft | 462 kts | 204° |
| 2026-05-05 13:35 | 36.13424 | 67.45919 | 36002 ft | 463 kts | 204° |
| 2026-05-05 13:36 | 36.07285 | 67.43572 | 36002 ft | 463 kts | 204° |
| 2026-05-05 13:36 | 36.01176 | 67.41238 | 36002 ft | 462 kts | 204° |
| 2026-05-05 13:37 | 35.95032 | 67.38897 | 36002 ft | 462 kts | 204° |
| 2026-05-05 13:37 | 35.88910 | 67.36568 | 36002 ft | 462 kts | 204° |
| 2026-05-05 13:38 | 35.82742 | 67.34226 | 36004 ft | 462 kts | 203° |
| 2026-05-05 13:38 | 35.76546 | 67.31877 | 36002 ft | 463 kts | 203° |
| 2026-05-05 13:39 | 35.70358 | 67.29535 | 36002 ft | 463 kts | 203° |
| 2026-05-05 13:39 | 35.64048 | 67.27151 | 36002 ft | 463 kts | 203° |
| 2026-05-05 13:40 | 35.57814 | 67.24798 | 36002 ft | 462 kts | 203° |
| 2026-05-05 13:40 | 35.51604 | 67.22459 | 36002 ft | 463 kts | 203° |
| 2026-05-05 13:41 | 35.45363 | 67.20113 | 36002 ft | 463 kts | 203° |
| 2026-05-05 13:41 | 35.39138 | 67.17776 | 36002 ft | 462 kts | 203° |
| 2026-05-05 13:42 | 35.32987 | 67.15472 | 36003 ft | 461 kts | 203° |
| 2026-05-05 13:42 | 35.26849 | 67.13175 | 36002 ft | 461 kts | 203° |
| 2026-05-05 13:43 | 35.20662 | 67.11175 | 36003 ft | 463 kts | 199° |
| 2026-05-05 13:43 | 35.14408 | 67.09405 | 36002 ft | 462 kts | 199° |
| 2026-05-05 13:44 | 35.08190 | 67.07655 | 35997 ft | 449 kts | 199° |
| 2026-05-05 13:44 | 35.05211 | 67.06821 | 35994 ft | 436 kts | 200° |
| 2026-05-05 13:44 | 35.02271 | 67.05994 | 36000 ft | 434 kts | 200° |
| 2026-05-05 13:45 | 34.96429 | 67.04337 | 36002 ft | 434 kts | 200° |
| 2026-05-05 13:45 | 34.90552 | 67.02679 | 36002 ft | 433 kts | 200° |
| 2026-05-05 13:46 | 34.84708 | 67.01035 | 36002 ft | 432 kts | 200° |
| 2026-05-05 13:46 | 34.78887 | 66.99403 | 36003 ft | 432 kts | 200° |
| 2026-05-05 13:47 | 34.73071 | 66.97774 | 36003 ft | 432 kts | 200° |
| 2026-05-05 13:47 | 34.67240 | 66.96143 | 36002 ft | 431 kts | 199° |
| 2026-05-05 13:48 | 34.61409 | 66.94516 | 36002 ft | 431 kts | 200° |
| 2026-05-05 13:48 | 34.55586 | 66.92851 | 36001 ft | 429 kts | 202° |
| 2026-05-05 13:49 | 34.49983 | 66.90665 | 36001 ft | 425 kts | 206° |
| 2026-05-05 13:49 | 34.44423 | 66.88234 | 36002 ft | 425 kts | 206° |
| 2026-05-05 13:50 | 34.38885 | 66.85815 | 36002 ft | 425 kts | 206° |
| 2026-05-05 13:50 | 34.33370 | 66.83411 | 36001 ft | 425 kts | 206° |
| 2026-05-05 13:51 | 34.27803 | 66.80988 | 36003 ft | 425 kts | 206° |
| 2026-05-05 13:51 | 34.22281 | 66.78587 | 36002 ft | 424 kts | 206° |
| 2026-05-05 13:52 | 34.16733 | 66.76178 | 36001 ft | 425 kts | 206° |
| 2026-05-05 13:52 | 34.11184 | 66.73772 | 36002 ft | 425 kts | 206° |
| 2026-05-05 13:53 | 34.05648 | 66.71375 | 36002 ft | 425 kts | 206° |
| 2026-05-05 13:53 | 34.00110 | 66.68981 | 36002 ft | 425 kts | 206° |
| 2026-05-05 13:54 | 33.94550 | 66.66581 | 36001 ft | 425 kts | 206° |
| 2026-05-05 13:54 | 33.88983 | 66.64179 | 36002 ft | 425 kts | 206° |
| 2026-05-05 13:55 | 33.83466 | 66.61805 | 36002 ft | 425 kts | 206° |
| 2026-05-05 13:55 | 33.77902 | 66.59414 | 36001 ft | 424 kts | 206° |
| 2026-05-05 13:56 | 33.72329 | 66.57021 | 36002 ft | 425 kts | 206° |
| 2026-05-05 13:56 | 33.66656 | 66.54588 | 36002 ft | 425 kts | 206° |
| 2026-05-05 13:57 | 33.61024 | 66.52177 | 36002 ft | 424 kts | 206° |
| 2026-05-05 13:57 | 33.55472 | 66.49802 | 36002 ft | 424 kts | 206° |
| 2026-05-05 13:58 | 33.49909 | 66.47427 | 36000 ft | 425 kts | 206° |
| 2026-05-05 13:58 | 33.44192 | 66.45272 | 35999 ft | 429 kts | 201° |
| 2026-05-05 13:59 | 33.35501 | 66.42765 | 35988 ft | 430 kts | 200° |
| 2026-05-05 14:00 | 33.27781 | 66.40553 | 35953 ft | 430 kts | 200° |
| 2026-05-05 14:00 | 33.20991 | 66.38607 | 35921 ft | 431 kts | 200° |
| 2026-05-05 14:01 | 33.15174 | 66.36942 | 35906 ft | 431 kts | 200° |
| 2026-05-05 14:01 | 33.09335 | 66.35274 | 35899 ft | 431 kts | 200° |
| 2026-05-05 14:02 | 33.03244 | 66.33545 | 35894 ft | 430 kts | 201° |
| 2026-05-05 14:02 | 32.97444 | 66.31894 | 35889 ft | 429 kts | 201° |
| 2026-05-05 14:03 | 32.91660 | 66.30247 | 35884 ft | 428 kts | 201° |
| 2026-05-05 14:03 | 32.85884 | 66.28600 | 35881 ft | 427 kts | 201° |
| 2026-05-05 14:04 | 32.80134 | 66.26965 | 35877 ft | 427 kts | 201° |
| 2026-05-05 14:04 | 32.74379 | 66.25333 | 35873 ft | 428 kts | 201° |
| 2026-05-05 14:05 | 32.68626 | 66.23704 | 35868 ft | 428 kts | 201° |
| 2026-05-05 14:05 | 32.62816 | 66.22061 | 35866 ft | 428 kts | 201° |
| 2026-05-05 14:06 | 32.57040 | 66.20429 | 35865 ft | 428 kts | 201° |
| 2026-05-05 14:06 | 32.51280 | 66.18806 | 35864 ft | 427 kts | 201° |
| 2026-05-05 14:07 | 32.45508 | 66.17181 | 35864 ft | 427 kts | 201° |
| 2026-05-05 14:07 | 32.39741 | 66.15557 | 35864 ft | 427 kts | 201° |
| 2026-05-05 14:08 | 32.34003 | 66.13946 | 35864 ft | 427 kts | 201° |
| 2026-05-05 14:08 | 32.28213 | 66.12321 | 35864 ft | 427 kts | 201° |
| 2026-05-05 14:09 | 32.22469 | 66.10705 | 35863 ft | 427 kts | 201° |
| 2026-05-05 14:09 | 32.16707 | 66.09083 | 35864 ft | 427 kts | 201° |
| 2026-05-05 14:10 | 32.10945 | 66.07464 | 35864 ft | 427 kts | 201° |
| 2026-05-05 14:10 | 32.05201 | 66.05853 | 35864 ft | 428 kts | 201° |
| 2026-05-05 14:11 | 31.99426 | 66.04234 | 35864 ft | 428 kts | 201° |
| 2026-05-05 14:11 | 31.93650 | 66.02618 | 35863 ft | 427 kts | 201° |
| 2026-05-05 14:12 | 31.87893 | 66.01007 | 35864 ft | 428 kts | 201° |
| 2026-05-05 14:12 | 31.82135 | 65.99400 | 35864 ft | 428 kts | 201° |
| 2026-05-05 14:13 | 31.76348 | 65.97787 | 35863 ft | 428 kts | 201° |
| 2026-05-05 14:13 | 31.70583 | 65.96180 | 35864 ft | 427 kts | 201° |
| 2026-05-05 14:14 | 31.64816 | 65.94576 | 35864 ft | 427 kts | 201° |
| 2026-05-05 14:14 | 31.59059 | 65.92978 | 35863 ft | 427 kts | 202° |
| 2026-05-05 14:15 | 31.53214 | 65.91613 | 35864 ft | 433 kts | 196° |
| 2026-05-05 14:15 | 31.47184 | 65.91099 | 35864 ft | 442 kts | 188° |
| 2026-05-05 14:16 | 31.40980 | 65.91540 | 35864 ft | 452 kts | 181° |
| 2026-05-05 14:16 | 31.34776 | 65.92751 | 35863 ft | 455 kts | 178° |
| 2026-05-05 14:17 | 31.28584 | 65.94039 | 35863 ft | 455 kts | 178° |
| 2026-05-05 14:17 | 31.22375 | 65.95312 | 35864 ft | 455 kts | 178° |
| 2026-05-05 14:18 | 31.16178 | 65.96578 | 35863 ft | 454 kts | 178° |
| 2026-05-05 14:18 | 31.09980 | 65.97839 | 35863 ft | 454 kts | 178° |
| 2026-05-05 14:19 | 31.03769 | 65.99102 | 35864 ft | 454 kts | 178° |
| 2026-05-05 14:19 | 30.97562 | 66.00362 | 35863 ft | 454 kts | 178° |
| 2026-05-05 14:20 | 30.91390 | 66.01613 | 35864 ft | 452 kts | 178° |
| 2026-05-05 14:20 | 30.85199 | 66.02866 | 35863 ft | 452 kts | 178° |
| 2026-05-05 14:21 | 30.79058 | 66.04105 | 35863 ft | 452 kts | 178° |
| 2026-05-05 14:21 | 30.72857 | 66.05356 | 35865 ft | 451 kts | 178° |
| 2026-05-05 14:22 | 30.66722 | 66.06591 | 35864 ft | 452 kts | 178° |
| 2026-05-05 14:22 | 30.60543 | 66.07949 | 35863 ft | 453 kts | 177° |
| 2026-05-05 14:23 | 30.54363 | 66.09373 | 35863 ft | 453 kts | 177° |
| 2026-05-05 14:23 | 30.48202 | 66.10780 | 35865 ft | 454 kts | 177° |
| 2026-05-05 14:24 | 30.42045 | 66.12180 | 35863 ft | 453 kts | 177° |
| 2026-05-05 14:24 | 30.35896 | 66.13573 | 35865 ft | 454 kts | 177° |
| 2026-05-05 14:25 | 30.29698 | 66.14977 | 35864 ft | 454 kts | 177° |
| 2026-05-05 14:25 | 30.23568 | 66.16362 | 35863 ft | 453 kts | 177° |
| 2026-05-05 14:26 | 30.17395 | 66.17754 | 35864 ft | 453 kts | 177° |
| 2026-05-05 14:26 | 30.11201 | 66.19150 | 35864 ft | 454 kts | 177° |
| 2026-05-05 14:27 | 30.05025 | 66.20541 | 35864 ft | 453 kts | 177° |
| 2026-05-05 14:27 | 29.98871 | 66.21924 | 35865 ft | 454 kts | 177° |
| 2026-05-05 14:28 | 29.92725 | 66.23303 | 35864 ft | 453 kts | 177° |
| 2026-05-05 14:28 | 29.86529 | 66.24763 | 35864 ft | 457 kts | 174° |
| 2026-05-05 14:29 | 29.80403 | 66.26904 | 35862 ft | 464 kts | 168° |
| 2026-05-05 14:29 | 29.74367 | 66.29395 | 35862 ft | 463 kts | 168° |
| 2026-05-05 14:30 | 29.68298 | 66.31899 | 35858 ft | 464 kts | 168° |
| 2026-05-05 14:30 | 29.62258 | 66.34380 | 35850 ft | 464 kts | 168° |
| 2026-05-05 14:31 | 29.56208 | 66.36859 | 35843 ft | 464 kts | 168° |
| 2026-05-05 14:31 | 29.50173 | 66.39327 | 35839 ft | 463 kts | 168° |
| 2026-05-05 14:32 | 29.44086 | 66.41813 | 35838 ft | 463 kts | 168° |
| 2026-05-05 14:32 | 29.38054 | 66.44273 | 35838 ft | 464 kts | 168° |
| 2026-05-05 14:33 | 29.31978 | 66.46747 | 35837 ft | 464 kts | 168° |
| 2026-05-05 14:33 | 29.25961 | 66.49195 | 35838 ft | 464 kts | 168° |
| 2026-05-05 14:34 | 29.19891 | 66.51663 | 35837 ft | 464 kts | 168° |
| 2026-05-05 14:34 | 29.13804 | 66.54089 | 35835 ft | 460 kts | 172° |
| 2026-05-05 14:35 | 29.10730 | 66.54806 | 35835 ft | 448 kts | 182° |
| 2026-05-05 14:35 | 29.07672 | 66.54918 | 35838 ft | 437 kts | 192° |
| 2026-05-05 14:35 | 29.04722 | 66.54471 | 35838 ft | 426 kts | 200° |
| 2026-05-05 14:35 | 29.01951 | 66.53526 | 35838 ft | 417 kts | 208° |
| 2026-05-05 14:36 | 28.97006 | 66.50299 | 35838 ft | 403 kts | 224° |
| 2026-05-05 14:36 | 28.93058 | 66.45901 | 35838 ft | 400 kts | 231° |
| 2026-05-05 14:37 | 28.89244 | 66.41288 | 35836 ft | 399 kts | 231° |
| 2026-05-05 14:37 | 28.85458 | 66.36714 | 35837 ft | 400 kts | 231° |
| 2026-05-05 14:38 | 28.81641 | 66.32113 | 35837 ft | 399 kts | 231° |
| 2026-05-05 14:38 | 28.77837 | 66.27535 | 35837 ft | 399 kts | 231° |
| 2026-05-05 14:39 | 28.74027 | 66.22956 | 35838 ft | 399 kts | 231° |
| 2026-05-05 14:39 | 28.70207 | 66.18369 | 35837 ft | 399 kts | 231° |
| 2026-05-05 14:40 | 28.66396 | 66.13801 | 35836 ft | 399 kts | 231° |
| 2026-05-05 14:40 | 28.62584 | 66.09237 | 35837 ft | 399 kts | 231° |
| 2026-05-05 14:41 | 28.58790 | 66.04699 | 35836 ft | 399 kts | 231° |
| 2026-05-05 14:41 | 28.54963 | 66.00124 | 35836 ft | 400 kts | 231° |
| 2026-05-05 14:42 | 28.51138 | 65.95558 | 35837 ft | 399 kts | 231° |
| 2026-05-05 14:42 | 28.47324 | 65.91009 | 35837 ft | 398 kts | 231° |
| 2026-05-05 14:43 | 28.43515 | 65.86473 | 35838 ft | 399 kts | 231° |
| 2026-05-05 14:43 | 28.39675 | 65.81905 | 35836 ft | 399 kts | 231° |
| 2026-05-05 14:44 | 28.35856 | 65.77368 | 35837 ft | 399 kts | 231° |
| 2026-05-05 14:44 | 28.32037 | 65.72836 | 35837 ft | 399 kts | 231° |
| 2026-05-05 14:45 | 28.28213 | 65.68301 | 35836 ft | 399 kts | 231° |
| 2026-05-05 14:45 | 28.24379 | 65.63760 | 35838 ft | 399 kts | 231° |
| 2026-05-05 14:46 | 28.20561 | 65.59243 | 35837 ft | 399 kts | 231° |
| 2026-05-05 14:46 | 28.16718 | 65.54704 | 35837 ft | 399 kts | 231° |
| 2026-05-05 14:47 | 28.12872 | 65.50163 | 35836 ft | 400 kts | 231° |
| 2026-05-05 14:47 | 28.09034 | 65.45639 | 35837 ft | 399 kts | 231° |
| 2026-05-05 14:48 | 28.05219 | 65.41144 | 35837 ft | 399 kts | 231° |
| 2026-05-05 14:48 | 28.01365 | 65.36607 | 35838 ft | 399 kts | 231° |
| 2026-05-05 14:49 | 27.97536 | 65.32108 | 35838 ft | 399 kts | 231° |
| 2026-05-05 14:49 | 27.93680 | 65.27581 | 35837 ft | 400 kts | 231° |
| 2026-05-05 14:50 | 27.89853 | 65.23094 | 35837 ft | 400 kts | 231° |
| 2026-05-05 14:50 | 27.85984 | 65.18560 | 35837 ft | 400 kts | 231° |
| 2026-05-05 14:51 | 27.82143 | 65.14065 | 35837 ft | 399 kts | 231° |
| 2026-05-05 14:51 | 27.78307 | 65.09581 | 35837 ft | 399 kts | 231° |
| 2026-05-05 14:52 | 27.74447 | 65.05074 | 35837 ft | 399 kts | 231° |
| 2026-05-05 14:52 | 27.70594 | 65.00581 | 35836 ft | 400 kts | 231° |
| 2026-05-05 14:53 | 27.66741 | 64.96090 | 35837 ft | 399 kts | 231° |
| 2026-05-05 14:53 | 27.62886 | 64.91602 | 35837 ft | 399 kts | 231° |
| 2026-05-05 14:54 | 27.59020 | 64.87108 | 35837 ft | 400 kts | 231° |
| 2026-05-05 14:54 | 27.55179 | 64.82645 | 35838 ft | 399 kts | 230° |
| 2026-05-05 14:55 | 27.51329 | 64.78179 | 35836 ft | 399 kts | 230° |
| 2026-05-05 14:55 | 27.47473 | 64.73715 | 35837 ft | 399 kts | 230° |
| 2026-05-05 14:56 | 27.43614 | 64.69244 | 35837 ft | 399 kts | 230° |
| 2026-05-05 14:56 | 27.39751 | 64.64778 | 35837 ft | 399 kts | 231° |
| 2026-05-05 14:57 | 27.35882 | 64.60310 | 35837 ft | 399 kts | 230° |
| 2026-05-05 14:57 | 27.32040 | 64.55881 | 35836 ft | 399 kts | 230° |
| 2026-05-05 14:58 | 27.28151 | 64.51399 | 35835 ft | 400 kts | 230° |
| 2026-05-05 14:58 | 27.24295 | 64.46958 | 35835 ft | 399 kts | 230° |
| 2026-05-05 14:59 | 27.20406 | 64.42486 | 35837 ft | 400 kts | 230° |
| 2026-05-05 14:59 | 27.16553 | 64.38056 | 35836 ft | 399 kts | 230° |
| 2026-05-05 15:00 | 27.13302 | 64.34326 | 35838 ft | 400 kts | 230° |
| 2026-05-05 15:00 | 27.08778 | 64.29137 | 35838 ft | 400 kts | 230° |
| 2026-05-05 15:01 | 27.04896 | 64.24690 | 35836 ft | 400 kts | 230° |
| 2026-05-05 15:01 | 27.01017 | 64.20248 | 35836 ft | 400 kts | 230° |
| 2026-05-05 15:02 | 26.97132 | 64.15807 | 35836 ft | 403 kts | 229° |
| 2026-05-05 15:02 | 26.93220 | 64.11306 | 35838 ft | 405 kts | 230° |
| 2026-05-05 15:03 | 26.89317 | 64.06758 | 35836 ft | 407 kts | 229° |
| 2026-05-05 15:03 | 26.85371 | 64.02168 | 35837 ft | 409 kts | 229° |
| 2026-05-05 15:04 | 26.81442 | 63.97606 | 35838 ft | 409 kts | 229° |
| 2026-05-05 15:04 | 26.77501 | 63.93039 | 35838 ft | 410 kts | 229° |
| 2026-05-05 15:05 | 26.71585 | 63.86183 | 35836 ft | 409 kts | 229° |
| 2026-05-05 15:06 | 26.67644 | 63.81627 | 35838 ft | 409 kts | 229° |
| 2026-05-05 15:06 | 26.63694 | 63.77061 | 35836 ft | 408 kts | 229° |
| 2026-05-05 15:07 | 26.59781 | 63.72545 | 35837 ft | 409 kts | 229° |
| 2026-05-05 15:07 | 26.55815 | 63.67971 | 35837 ft | 409 kts | 229° |
| 2026-05-05 15:08 | 26.51869 | 63.63426 | 35837 ft | 409 kts | 230° |
| 2026-05-05 15:08 | 26.47935 | 63.58900 | 35837 ft | 409 kts | 229° |
| 2026-05-05 15:09 | 26.43994 | 63.54367 | 35837 ft | 408 kts | 230° |
| 2026-05-05 15:09 | 26.40020 | 63.49804 | 35836 ft | 409 kts | 229° |
| 2026-05-05 15:10 | 26.36086 | 63.45293 | 35837 ft | 409 kts | 229° |
| 2026-05-05 15:10 | 26.32128 | 63.40756 | 35838 ft | 409 kts | 229° |
| 2026-05-05 15:11 | 26.28175 | 63.36232 | 35838 ft | 408 kts | 230° |
| 2026-05-05 15:11 | 26.24199 | 63.31686 | 35838 ft | 410 kts | 229° |
| 2026-05-05 15:12 | 26.20251 | 63.27175 | 35837 ft | 410 kts | 229° |
| 2026-05-05 15:12 | 26.16272 | 63.22633 | 35835 ft | 410 kts | 229° |
| 2026-05-05 15:13 | 26.12302 | 63.18109 | 35837 ft | 410 kts | 229° |
| 2026-05-05 15:13 | 26.08341 | 63.13597 | 35836 ft | 409 kts | 229° |
| 2026-05-05 15:14 | 26.04367 | 63.09073 | 35837 ft | 409 kts | 229° |
| 2026-05-05 15:14 | 26.00387 | 63.04550 | 35841 ft | 409 kts | 230° |
| 2026-05-05 15:15 | 25.96680 | 62.99839 | 35850 ft | 407 kts | 233° |
| 2026-05-05 15:15 | 25.93090 | 62.94996 | 35857 ft | 407 kts | 233° |
| 2026-05-05 15:16 | 25.89485 | 62.90139 | 35861 ft | 407 kts | 233° |
| 2026-05-05 15:16 | 25.85896 | 62.85307 | 35861 ft | 408 kts | 233° |
| 2026-05-05 15:17 | 25.82295 | 62.80466 | 35862 ft | 408 kts | 233° |
| 2026-05-05 15:17 | 25.78697 | 62.75632 | 35862 ft | 408 kts | 233° |
| 2026-05-05 15:18 | 25.75096 | 62.70800 | 35862 ft | 408 kts | 233° |
| 2026-05-05 15:18 | 25.71488 | 62.65964 | 35863 ft | 408 kts | 233° |
| 2026-05-05 15:19 | 25.67895 | 62.61153 | 35862 ft | 408 kts | 233° |
| 2026-05-05 15:19 | 25.64271 | 62.56305 | 35862 ft | 408 kts | 233° |
| 2026-05-05 15:20 | 25.60661 | 62.51481 | 35862 ft | 408 kts | 233° |
| 2026-05-05 15:20 | 25.57053 | 62.46667 | 35862 ft | 408 kts | 233° |
| 2026-05-05 15:21 | 25.53451 | 62.41862 | 35861 ft | 408 kts | 233° |
| 2026-05-05 15:21 | 25.49843 | 62.37054 | 35862 ft | 407 kts | 233° |
| 2026-05-05 15:22 | 25.46213 | 62.32225 | 35864 ft | 408 kts | 233° |
| 2026-05-05 15:22 | 25.42595 | 62.27418 | 35862 ft | 408 kts | 233° |
| 2026-05-05 15:23 | 25.38977 | 62.22612 | 35862 ft | 408 kts | 233° |
| 2026-05-05 15:23 | 25.35365 | 62.17820 | 35862 ft | 407 kts | 233° |
| 2026-05-05 15:24 | 25.31737 | 62.13012 | 35862 ft | 408 kts | 233° |
| 2026-05-05 15:24 | 25.28121 | 62.08224 | 35862 ft | 408 kts | 233° |
| 2026-05-05 15:25 | 25.24473 | 62.03400 | 35862 ft | 408 kts | 233° |
| 2026-05-05 15:25 | 25.20851 | 61.98614 | 35862 ft | 407 kts | 233° |
| 2026-05-05 15:26 | 25.17231 | 61.93836 | 35862 ft | 407 kts | 233° |
| 2026-05-05 15:26 | 25.13605 | 61.89056 | 35862 ft | 408 kts | 233° |
| 2026-05-05 15:27 | 25.09996 | 61.84233 | 35861 ft | 407 kts | 235° |
| 2026-05-05 15:27 | 25.06771 | 61.79120 | 35861 ft | 407 kts | 240° |
| 2026-05-05 15:28 | 25.04050 | 61.73685 | 35862 ft | 407 kts | 245° |
| 2026-05-05 15:28 | 25.01712 | 61.68009 | 35862 ft | 408 kts | 247° |
| 2026-05-05 15:29 | 24.99401 | 61.62311 | 35862 ft | 409 kts | 247° |
| 2026-05-05 15:29 | 24.97066 | 61.56560 | 35862 ft | 410 kts | 247° |
| 2026-05-05 15:30 | 24.94748 | 61.50859 | 35862 ft | 412 kts | 247° |
| 2026-05-05 15:30 | 24.92406 | 61.45084 | 35862 ft | 412 kts | 247° |
| 2026-05-05 15:31 | 24.90101 | 61.39315 | 35863 ft | 412 kts | 247° |
| 2026-05-05 15:31 | 24.87806 | 61.33578 | 35864 ft | 412 kts | 247° |
| 2026-05-05 15:32 | 24.85495 | 61.27808 | 35862 ft | 412 kts | 247° |
| 2026-05-05 15:32 | 24.83191 | 61.22072 | 35862 ft | 412 kts | 247° |
| 2026-05-05 15:33 | 24.80884 | 61.16329 | 35862 ft | 412 kts | 247° |
| 2026-05-05 15:33 | 24.78564 | 61.10567 | 35862 ft | 412 kts | 247° |
| 2026-05-05 15:34 | 24.76250 | 61.04824 | 35862 ft | 411 kts | 247° |
| 2026-05-05 15:34 | 24.73933 | 60.99081 | 35862 ft | 411 kts | 246° |
| 2026-05-05 15:35 | 24.71618 | 60.93357 | 35862 ft | 411 kts | 246° |
| 2026-05-05 15:35 | 24.69242 | 60.87658 | 35861 ft | 411 kts | 245° |
| 2026-05-05 15:36 | 24.66793 | 60.82013 | 35862 ft | 411 kts | 245° |
| 2026-05-05 15:36 | 24.64335 | 60.76337 | 35862 ft | 411 kts | 245° |
| 2026-05-05 15:37 | 24.61887 | 60.70674 | 35861 ft | 411 kts | 245° |
| 2026-05-05 15:37 | 24.59436 | 60.65007 | 35845 ft | 411 kts | 245° |
| 2026-05-05 15:38 | 24.56990 | 60.59364 | 35815 ft | 411 kts | 245° |
| 2026-05-05 15:38 | 24.54542 | 60.53727 | 35785 ft | 411 kts | 245° |
| 2026-05-05 15:39 | 24.52074 | 60.48047 | 35757 ft | 411 kts | 245° |
| 2026-05-05 15:39 | 24.49620 | 60.42408 | 35740 ft | 411 kts | 245° |
| 2026-05-05 15:40 | 24.47160 | 60.36764 | 35731 ft | 411 kts | 245° |
| 2026-05-05 15:40 | 24.44691 | 60.31101 | 35729 ft | 412 kts | 245° |
| 2026-05-05 15:41 | 24.42224 | 60.25455 | 35727 ft | 411 kts | 245° |
| 2026-05-05 15:41 | 24.39750 | 60.19794 | 35727 ft | 412 kts | 245° |
| 2026-05-05 15:42 | 24.37277 | 60.14151 | 35727 ft | 411 kts | 245° |
| 2026-05-05 15:42 | 24.34807 | 60.08516 | 35727 ft | 412 kts | 245° |
| 2026-05-05 15:43 | 24.32336 | 60.02884 | 35727 ft | 411 kts | 245° |
| 2026-05-05 15:43 | 24.29854 | 59.97235 | 35727 ft | 411 kts | 245° |
| 2026-05-05 15:44 | 24.27389 | 59.91631 | 35728 ft | 411 kts | 245° |
| 2026-05-05 15:44 | 24.24902 | 59.85984 | 35727 ft | 411 kts | 245° |
| 2026-05-05 15:45 | 24.22418 | 59.80350 | 35728 ft | 412 kts | 245° |
| 2026-05-05 15:45 | 24.19939 | 59.74734 | 35727 ft | 411 kts | 245° |
| 2026-05-05 15:46 | 24.17453 | 59.69110 | 35728 ft | 411 kts | 245° |
| 2026-05-05 15:46 | 24.14965 | 59.63488 | 35727 ft | 411 kts | 245° |
| 2026-05-05 15:47 | 24.12473 | 59.57862 | 35727 ft | 411 kts | 245° |
| 2026-05-05 15:47 | 24.09976 | 59.52235 | 35727 ft | 411 kts | 245° |
| 2026-05-05 15:48 | 24.07488 | 59.46635 | 35727 ft | 412 kts | 245° |
| 2026-05-05 15:48 | 24.04989 | 59.41020 | 35727 ft | 411 kts | 245° |
| 2026-05-05 15:49 | 24.02487 | 59.35408 | 35727 ft | 411 kts | 245° |
| 2026-05-05 15:49 | 23.99984 | 59.29799 | 35727 ft | 411 kts | 245° |
| 2026-05-05 15:50 | 23.97480 | 59.24186 | 35728 ft | 412 kts | 244° |
| 2026-05-05 15:50 | 23.94976 | 59.18581 | 35726 ft | 411 kts | 244° |
| 2026-05-05 15:51 | 23.92518 | 59.12952 | 35727 ft | 411 kts | 247° |
| 2026-05-05 15:51 | 23.90304 | 59.07175 | 35728 ft | 411 kts | 248° |
| 2026-05-05 15:52 | 23.88113 | 59.01420 | 35726 ft | 411 kts | 248° |
| 2026-05-05 15:52 | 23.85926 | 58.95685 | 35726 ft | 411 kts | 248° |
| 2026-05-05 15:53 | 23.83731 | 58.89941 | 35727 ft | 411 kts | 248° |
| 2026-05-05 15:53 | 23.81528 | 58.84180 | 35727 ft | 411 kts | 248° |
| 2026-05-05 15:54 | 23.79336 | 58.78458 | 35726 ft | 411 kts | 248° |
| 2026-05-05 15:54 | 23.77135 | 58.72720 | 35726 ft | 411 kts | 248° |
| 2026-05-05 15:55 | 23.74922 | 58.66960 | 35726 ft | 411 kts | 248° |
| 2026-05-05 15:55 | 23.72711 | 58.61212 | 35727 ft | 411 kts | 248° |
| 2026-05-05 15:56 | 23.70513 | 58.55505 | 35727 ft | 411 kts | 248° |
| 2026-05-05 15:56 | 23.68298 | 58.49757 | 35727 ft | 411 kts | 248° |
| 2026-05-05 15:57 | 23.66092 | 58.44044 | 35726 ft | 411 kts | 248° |
| 2026-05-05 15:57 | 23.63866 | 58.38285 | 35727 ft | 411 kts | 248° |
| 2026-05-05 15:58 | 23.61645 | 58.32550 | 35729 ft | 411 kts | 247° |
| 2026-05-05 15:58 | 23.59273 | 58.26923 | 35728 ft | 412 kts | 243° |
| 2026-05-05 15:59 | 23.56377 | 58.21574 | 35727 ft | 412 kts | 237° |
| 2026-05-05 15:59 | 23.53176 | 58.16353 | 35726 ft | 412 kts | 237° |
| 2026-05-05 16:00 | 23.50003 | 58.11193 | 35727 ft | 412 kts | 237° |
| 2026-05-05 16:00 | 23.46811 | 58.06008 | 35727 ft | 412 kts | 237° |
| 2026-05-05 16:01 | 23.43631 | 58.00846 | 35727 ft | 412 kts | 237° |
| 2026-05-05 16:01 | 23.40452 | 57.95689 | 35727 ft | 412 kts | 237° |
| 2026-05-05 16:02 | 23.37272 | 57.90538 | 35728 ft | 412 kts | 237° |
| 2026-05-05 16:02 | 23.34083 | 57.85375 | 35727 ft | 412 kts | 237° |
| 2026-05-05 16:03 | 23.30888 | 57.80211 | 35727 ft | 412 kts | 237° |
| 2026-05-05 16:03 | 23.27694 | 57.75050 | 35728 ft | 412 kts | 237° |
| 2026-05-05 16:04 | 23.24501 | 57.69897 | 35727 ft | 412 kts | 237° |
| 2026-05-05 16:04 | 23.21304 | 57.64744 | 35726 ft | 412 kts | 237° |
| 2026-05-05 16:05 | 23.18100 | 57.59583 | 35727 ft | 412 kts | 237° |
| 2026-05-05 16:05 | 23.14903 | 57.54438 | 35727 ft | 412 kts | 237° |
| 2026-05-05 16:06 | 23.11709 | 57.49307 | 35727 ft | 412 kts | 237° |
| 2026-05-05 16:06 | 23.08492 | 57.44139 | 35728 ft | 412 kts | 237° |
| 2026-05-05 16:07 | 23.05293 | 57.39000 | 35727 ft | 412 kts | 238° |
| 2026-05-05 16:07 | 23.02596 | 57.33585 | 35728 ft | 412 kts | 247° |
| 2026-05-05 16:08 | 23.00784 | 57.27680 | 35727 ft | 413 kts | 256° |
| 2026-05-05 16:08 | 22.99943 | 57.21454 | 35726 ft | 415 kts | 266° |
| 2026-05-05 16:09 | 22.99767 | 57.15215 | 35727 ft | 416 kts | 267° |
| 2026-05-05 16:09 | 22.99632 | 57.08918 | 35727 ft | 416 kts | 267° |
| 2026-05-05 16:10 | 22.99493 | 57.02657 | 35727 ft | 417 kts | 267° |
| 2026-05-05 16:10 | 22.99348 | 56.96410 | 35727 ft | 417 kts | 267° |
| 2026-05-05 16:11 | 22.99198 | 56.90107 | 35727 ft | 417 kts | 267° |
| 2026-05-05 16:12 | 22.98890 | 56.77574 | 35737 ft | 417 kts | 267° |
| 2026-05-05 16:13 | 22.98490 | 56.61834 | 35782 ft | 418 kts | 267° |
| 2026-05-05 16:13 | 22.98327 | 56.55577 | 35797 ft | 418 kts | 267° |
| 2026-05-05 16:14 | 22.97991 | 56.42997 | 35806 ft | 418 kts | 267° |
| 2026-05-05 16:15 | 22.97645 | 56.30414 | 35808 ft | 418 kts | 266° |
| 2026-05-05 16:16 | 22.97288 | 56.17800 | 35807 ft | 419 kts | 266° |
| 2026-05-05 16:17 | 22.97014 | 56.08361 | 35807 ft | 419 kts | 266° |
| 2026-05-05 16:18 | 22.96734 | 55.98899 | 35806 ft | 419 kts | 266° |
| 2026-05-05 16:19 | 22.96451 | 55.89471 | 35807 ft | 419 kts | 266° |
| 2026-05-05 16:19 | 22.96158 | 55.79980 | 35807 ft | 419 kts | 266° |
| 2026-05-05 16:20 | 22.95763 | 55.67397 | 35807 ft | 420 kts | 266° |
| 2026-05-05 16:22 | 22.95252 | 55.51587 | 35807 ft | 420 kts | 266° |
| 2026-05-05 16:23 | 22.94823 | 55.38674 | 35807 ft | 420 kts | 266° |
| 2026-05-05 16:23 | 22.94488 | 55.28824 | 35807 ft | 421 kts | 266° |
| 2026-05-05 16:24 | 22.94264 | 55.22355 | 35807 ft | 421 kts | 266° |
| 2026-05-05 16:25 | 22.93931 | 55.12852 | 35807 ft | 421 kts | 266° |
| 2026-05-05 16:25 | 22.93590 | 55.03284 | 35807 ft | 420 kts | 266° |
| 2026-05-05 16:26 | 22.93108 | 54.89965 | 35806 ft | 419 kts | 266° |
| 2026-05-05 16:27 | 22.92861 | 54.83271 | 35798 ft | 419 kts | 266° |
| 2026-05-05 16:27 | 22.92614 | 54.76639 | 35786 ft | 419 kts | 266° |
| 2026-05-05 16:28 | 22.92359 | 54.69871 | 35772 ft | 419 kts | 266° |
| 2026-05-05 16:28 | 22.92102 | 54.63130 | 35761 ft | 420 kts | 266° |
| 2026-05-05 16:29 | 22.91844 | 54.56447 | 35756 ft | 420 kts | 266° |
| 2026-05-05 16:29 | 22.91583 | 54.49748 | 35754 ft | 420 kts | 266° |
| 2026-05-05 16:30 | 22.91333 | 54.43422 | 35754 ft | 420 kts | 266° |
| 2026-05-05 16:30 | 22.91081 | 54.37093 | 35754 ft | 421 kts | 266° |
| 2026-05-05 16:31 | 22.90827 | 54.30772 | 35755 ft | 421 kts | 266° |
| 2026-05-05 16:31 | 22.90569 | 54.24450 | 35754 ft | 421 kts | 266° |
| 2026-05-05 16:32 | 22.90310 | 54.18122 | 35754 ft | 421 kts | 266° |
| 2026-05-05 16:32 | 22.90047 | 54.11773 | 35754 ft | 421 kts | 266° |
| 2026-05-05 16:33 | 22.89782 | 54.05436 | 35754 ft | 422 kts | 266° |
| 2026-05-05 16:33 | 22.89514 | 53.99084 | 35754 ft | 422 kts | 266° |
| 2026-05-05 16:34 | 22.89243 | 53.92734 | 35754 ft | 422 kts | 266° |
| 2026-05-05 16:34 | 22.88971 | 53.86392 | 35754 ft | 422 kts | 266° |
| 2026-05-05 16:35 | 22.88695 | 53.80053 | 35754 ft | 423 kts | 266° |
| 2026-05-05 16:35 | 22.88417 | 53.73709 | 35754 ft | 423 kts | 266° |
| 2026-05-05 16:36 | 22.88136 | 53.67337 | 35754 ft | 423 kts | 266° |
| 2026-05-05 16:36 | 22.87852 | 53.60987 | 35754 ft | 423 kts | 266° |
| 2026-05-05 16:37 | 22.87565 | 53.54611 | 35754 ft | 423 kts | 266° |
| 2026-05-05 16:37 | 22.87278 | 53.48288 | 35753 ft | 423 kts | 266° |
| 2026-05-05 16:38 | 22.86986 | 53.41901 | 35753 ft | 423 kts | 266° |
| 2026-05-05 16:38 | 22.86692 | 53.35549 | 35753 ft | 423 kts | 266° |
| 2026-05-05 16:39 | 22.86396 | 53.29189 | 35754 ft | 423 kts | 266° |
| 2026-05-05 16:39 | 22.86098 | 53.22840 | 35754 ft | 423 kts | 266° |
| 2026-05-05 16:40 | 22.85797 | 53.16495 | 35754 ft | 423 kts | 266° |
| 2026-05-05 16:40 | 22.85493 | 53.10116 | 35754 ft | 423 kts | 266° |
| 2026-05-05 16:41 | 22.85187 | 53.03769 | 35754 ft | 423 kts | 266° |
| 2026-05-05 16:41 | 22.84880 | 52.97430 | 35754 ft | 423 kts | 266° |
| 2026-05-05 16:42 | 22.84568 | 52.91057 | 35754 ft | 423 kts | 265° |
| 2026-05-05 16:42 | 22.84255 | 52.84716 | 35754 ft | 423 kts | 265° |
| 2026-05-05 16:43 | 22.83940 | 52.78391 | 35754 ft | 423 kts | 265° |
| 2026-05-05 16:43 | 22.83620 | 52.72025 | 35754 ft | 423 kts | 265° |
| 2026-05-05 16:44 | 22.83299 | 52.65687 | 35754 ft | 423 kts | 265° |
| 2026-05-05 16:44 | 22.82976 | 52.59338 | 35754 ft | 423 kts | 265° |
| 2026-05-05 16:45 | 22.82649 | 52.52976 | 35754 ft | 423 kts | 265° |
| 2026-05-05 16:45 | 22.82490 | 52.46619 | 35765 ft | 424 kts | 269° |
| 2026-05-05 16:46 | 22.82616 | 52.40229 | 35774 ft | 424 kts | 270° |
| 2026-05-05 16:46 | 22.82750 | 52.33882 | 35779 ft | 424 kts | 269° |
| 2026-05-05 16:47 | 22.82881 | 52.27515 | 35780 ft | 424 kts | 269° |
| 2026-05-05 16:47 | 22.83008 | 52.21155 | 35781 ft | 424 kts | 269° |
| 2026-05-05 16:48 | 22.83132 | 52.14772 | 35780 ft | 423 kts | 269° |
| 2026-05-05 16:48 | 22.83253 | 52.08413 | 35780 ft | 424 kts | 269° |
| 2026-05-05 16:49 | 22.83372 | 52.02025 | 35780 ft | 424 kts | 269° |
| 2026-05-05 16:49 | 22.83488 | 51.95645 | 35780 ft | 424 kts | 269° |
| 2026-05-05 16:50 | 22.83601 | 51.89282 | 35780 ft | 424 kts | 269° |
| 2026-05-05 16:50 | 22.83712 | 51.82925 | 35780 ft | 424 kts | 269° |
| 2026-05-05 16:51 | 22.83821 | 51.76551 | 35780 ft | 424 kts | 269° |
| 2026-05-05 16:51 | 22.83927 | 51.70167 | 35780 ft | 424 kts | 269° |
| 2026-05-05 16:52 | 22.84032 | 51.63804 | 35780 ft | 424 kts | 269° |
| 2026-05-05 16:52 | 22.84132 | 51.57441 | 35780 ft | 424 kts | 269° |
| 2026-05-05 16:53 | 22.84214 | 51.51042 | 35780 ft | 423 kts | 268° |
| 2026-05-05 16:53 | 22.83860 | 51.44719 | 35780 ft | 422 kts | 262° |
| 2026-05-05 16:54 | 22.82907 | 51.38448 | 35780 ft | 421 kts | 258° |
| 2026-05-05 16:54 | 22.81803 | 51.32222 | 35781 ft | 421 kts | 258° |
| 2026-05-05 16:55 | 22.80701 | 51.26026 | 35781 ft | 421 kts | 258° |
| 2026-05-05 16:55 | 22.79597 | 51.19808 | 35781 ft | 421 kts | 258° |
| 2026-05-05 16:56 | 22.78491 | 51.13598 | 35780 ft | 421 kts | 258° |
| 2026-05-05 16:56 | 22.77375 | 51.07362 | 35781 ft | 421 kts | 258° |
| 2026-05-05 16:57 | 22.76260 | 51.01154 | 35781 ft | 420 kts | 258° |
| 2026-05-05 16:57 | 22.75141 | 50.94938 | 35781 ft | 420 kts | 258° |
| 2026-05-05 16:58 | 22.74033 | 50.88792 | 35781 ft | 419 kts | 258° |
| 2026-05-05 16:58 | 22.72913 | 50.82593 | 35780 ft | 419 kts | 258° |
| 2026-05-05 16:59 | 22.71799 | 50.76442 | 35780 ft | 419 kts | 258° |
| 2026-05-05 16:59 | 22.70673 | 50.70236 | 35780 ft | 419 kts | 258° |
| 2026-05-05 17:00 | 22.69554 | 50.64084 | 35780 ft | 419 kts | 258° |
| 2026-05-05 17:00 | 22.68429 | 50.57908 | 35780 ft | 419 kts | 258° |
| 2026-05-05 17:01 | 22.67302 | 50.51741 | 35780 ft | 419 kts | 258° |
| 2026-05-05 17:01 | 22.66174 | 50.45580 | 35780 ft | 419 kts | 258° |
| 2026-05-05 17:02 | 22.65041 | 50.39412 | 35780 ft | 419 kts | 258° |
| 2026-05-05 17:02 | 22.63906 | 50.33239 | 35781 ft | 419 kts | 257° |
| 2026-05-05 17:03 | 22.62765 | 50.27049 | 35781 ft | 419 kts | 257° |
| 2026-05-05 17:03 | 22.61625 | 50.20877 | 35780 ft | 419 kts | 257° |
| 2026-05-05 17:04 | 22.60482 | 50.14706 | 35780 ft | 419 kts | 257° |
| 2026-05-05 17:04 | 22.59341 | 50.08551 | 35780 ft | 419 kts | 257° |
| 2026-05-05 17:05 | 22.58192 | 50.02372 | 35780 ft | 419 kts | 257° |
| 2026-05-05 17:05 | 22.57048 | 49.96233 | 35780 ft | 419 kts | 257° |
| 2026-05-05 17:06 | 22.55895 | 49.90064 | 35780 ft | 419 kts | 257° |
| 2026-05-05 17:06 | 22.54776 | 49.83900 | 35780 ft | 419 kts | 259° |
| 2026-05-05 17:07 | 22.54113 | 49.77555 | 35780 ft | 420 kts | 265° |
| 2026-05-05 17:07 | 22.54089 | 49.71262 | 35780 ft | 422 kts | 271° |
| 2026-05-05 17:08 | 22.54608 | 49.64938 | 35781 ft | 423 kts | 274° |
| 2026-05-05 17:08 | 22.55213 | 49.58626 | 35780 ft | 423 kts | 274° |
| 2026-05-05 17:09 | 22.55815 | 49.52319 | 35780 ft | 423 kts | 274° |
| 2026-05-05 17:09 | 22.56409 | 49.46032 | 35780 ft | 423 kts | 274° |
| 2026-05-05 17:10 | 22.57002 | 49.39727 | 35780 ft | 423 kts | 274° |
| 2026-05-05 17:10 | 22.57626 | 49.33052 | 35782 ft | 423 kts | 274° |
| 2026-05-05 17:11 | 22.58234 | 49.26525 | 35781 ft | 422 kts | 274° |
| 2026-05-05 17:11 | 22.58822 | 49.20188 | 35780 ft | 422 kts | 274° |
| 2026-05-05 17:12 | 22.59402 | 49.13902 | 35780 ft | 421 kts | 274° |
| 2026-05-05 17:12 | 22.59980 | 49.07605 | 35780 ft | 420 kts | 274° |
| 2026-05-05 17:13 | 22.60552 | 49.01347 | 35780 ft | 418 kts | 274° |
| 2026-05-05 17:13 | 22.61117 | 48.95142 | 35780 ft | 416 kts | 274° |
| 2026-05-05 17:14 | 22.61683 | 48.88916 | 35779 ft | 415 kts | 274° |
| 2026-05-05 17:14 | 22.62243 | 48.82731 | 35779 ft | 415 kts | 274° |
| 2026-05-05 17:15 | 22.62801 | 48.76523 | 35778 ft | 415 kts | 274° |
| 2026-05-05 17:15 | 22.63359 | 48.70298 | 35779 ft | 415 kts | 274° |
| 2026-05-05 17:16 | 22.63910 | 48.64123 | 35780 ft | 415 kts | 274° |
| 2026-05-05 17:16 | 22.64462 | 48.57908 | 35780 ft | 415 kts | 274° |
| 2026-05-05 17:17 | 22.65013 | 48.51666 | 35780 ft | 415 kts | 274° |
| 2026-05-05 17:17 | 22.65558 | 48.45470 | 35780 ft | 415 kts | 274° |
| 2026-05-05 17:18 | 22.66104 | 48.39247 | 35780 ft | 415 kts | 274° |
| 2026-05-05 17:18 | 22.66644 | 48.33050 | 35782 ft | 415 kts | 274° |
| 2026-05-05 17:19 | 22.67185 | 48.26827 | 35781 ft | 415 kts | 274° |
| 2026-05-05 17:19 | 22.67721 | 48.20631 | 35780 ft | 415 kts | 274° |
| 2026-05-05 17:20 | 22.68257 | 48.14406 | 35780 ft | 415 kts | 274° |
| 2026-05-05 17:20 | 22.68787 | 48.08220 | 35780 ft | 415 kts | 274° |
| 2026-05-05 17:21 | 22.69318 | 48.01989 | 35780 ft | 415 kts | 274° |
| 2026-05-05 17:22 | 22.70099 | 47.92683 | 35780 ft | 415 kts | 274° |
| 2026-05-05 17:22 | 22.70619 | 47.86466 | 35780 ft | 415 kts | 274° |
| 2026-05-05 17:23 | 22.71135 | 47.80262 | 35780 ft | 415 kts | 274° |
| 2026-05-05 17:23 | 22.71651 | 47.74036 | 35780 ft | 415 kts | 274° |
| 2026-05-05 17:24 | 22.72164 | 47.67825 | 35786 ft | 415 kts | 274° |
| 2026-05-05 17:24 | 22.72676 | 47.61595 | 35798 ft | 415 kts | 274° |
| 2026-05-05 17:25 | 22.73183 | 47.55398 | 35815 ft | 415 kts | 274° |
| 2026-05-05 17:25 | 22.73687 | 47.49195 | 35832 ft | 415 kts | 274° |
| 2026-05-05 17:26 | 22.74191 | 47.42970 | 35845 ft | 415 kts | 274° |
| 2026-05-05 17:26 | 22.74692 | 47.36758 | 35851 ft | 415 kts | 274° |
| 2026-05-05 17:27 | 22.75192 | 47.30531 | 35856 ft | 415 kts | 273° |
| 2026-05-05 17:27 | 22.75690 | 47.24300 | 35859 ft | 415 kts | 273° |
| 2026-05-05 17:28 | 22.76184 | 47.18087 | 35861 ft | 415 kts | 273° |
| 2026-05-05 17:28 | 22.76675 | 47.11892 | 35862 ft | 415 kts | 273° |
| 2026-05-05 17:29 | 22.77168 | 47.05673 | 35862 ft | 415 kts | 273° |
| 2026-05-05 17:29 | 22.77659 | 46.99445 | 35862 ft | 415 kts | 274° |
| 2026-05-05 17:30 | 22.78145 | 46.93250 | 35862 ft | 414 kts | 274° |
| 2026-05-05 17:30 | 22.78628 | 46.87053 | 35862 ft | 413 kts | 274° |
| 2026-05-05 17:31 | 22.79112 | 46.80843 | 35862 ft | 413 kts | 274° |
| 2026-05-05 17:31 | 22.79589 | 46.74689 | 35862 ft | 412 kts | 274° |
| 2026-05-05 17:32 | 22.80067 | 46.68506 | 35862 ft | 412 kts | 274° |
| 2026-05-05 17:32 | 22.80542 | 46.62315 | 35862 ft | 412 kts | 274° |
| 2026-05-05 17:33 | 22.81013 | 46.56151 | 35862 ft | 412 kts | 274° |
| 2026-05-05 17:33 | 22.81484 | 46.49958 | 35862 ft | 412 kts | 274° |
| 2026-05-05 17:34 | 22.81951 | 46.43778 | 35862 ft | 412 kts | 274° |
| 2026-05-05 17:34 | 22.82413 | 46.37606 | 35862 ft | 412 kts | 274° |
| 2026-05-05 17:35 | 22.82869 | 46.31441 | 35863 ft | 412 kts | 274° |
| 2026-05-05 17:35 | 22.83326 | 46.25243 | 35866 ft | 412 kts | 274° |
| 2026-05-05 17:36 | 22.83779 | 46.19069 | 35877 ft | 412 kts | 274° |
| 2026-05-05 17:36 | 22.84231 | 46.12892 | 35893 ft | 412 kts | 274° |
| 2026-05-05 17:37 | 22.84680 | 46.06712 | 35914 ft | 412 kts | 274° |
| 2026-05-05 17:37 | 22.85128 | 46.00510 | 35933 ft | 412 kts | 274° |
| 2026-05-05 17:38 | 22.85572 | 45.94349 | 35945 ft | 412 kts | 274° |
| 2026-05-05 17:38 | 22.86020 | 45.88084 | 35952 ft | 412 kts | 274° |
| 2026-05-05 17:39 | 22.86460 | 45.81887 | 35956 ft | 412 kts | 274° |
| 2026-05-05 17:39 | 22.86896 | 45.75736 | 35960 ft | 412 kts | 274° |
| 2026-05-05 17:40 | 22.87332 | 45.69538 | 35963 ft | 412 kts | 274° |
| 2026-05-05 17:40 | 22.87762 | 45.63380 | 35966 ft | 412 kts | 274° |
| 2026-05-05 17:41 | 22.88194 | 45.57177 | 35969 ft | 412 kts | 274° |
| 2026-05-05 17:41 | 22.88620 | 45.51021 | 35971 ft | 412 kts | 274° |
| 2026-05-05 17:42 | 22.89048 | 45.44814 | 35971 ft | 411 kts | 274° |
| 2026-05-05 17:42 | 22.89469 | 45.38652 | 35971 ft | 411 kts | 274° |
| 2026-05-05 17:43 | 22.89890 | 45.32476 | 35973 ft | 411 kts | 273° |
| 2026-05-05 17:43 | 22.90305 | 45.26347 | 35972 ft | 410 kts | 273° |
| 2026-05-05 17:44 | 22.90721 | 45.20182 | 35972 ft | 410 kts | 273° |
| 2026-05-05 17:44 | 22.91133 | 45.14025 | 35972 ft | 410 kts | 273° |
| 2026-05-05 17:45 | 22.91540 | 45.07891 | 35972 ft | 409 kts | 273° |
| 2026-05-05 17:45 | 22.91944 | 45.01743 | 35972 ft | 408 kts | 273° |
| 2026-05-05 17:46 | 22.92345 | 44.95604 | 35972 ft | 407 kts | 274° |
| 2026-05-05 17:46 | 22.92743 | 44.89499 | 35972 ft | 406 kts | 274° |
| 2026-05-05 17:47 | 22.93138 | 44.83419 | 35972 ft | 405 kts | 274° |
| 2026-05-05 17:47 | 22.93529 | 44.77363 | 35972 ft | 405 kts | 274° |
| 2026-05-05 17:48 | 22.93919 | 44.71277 | 35971 ft | 404 kts | 274° |
| 2026-05-05 17:48 | 22.94081 | 44.65185 | 35971 ft | 404 kts | 269° |
| 2026-05-05 17:49 | 22.93842 | 44.59104 | 35971 ft | 404 kts | 268° |
| 2026-05-05 17:49 | 22.93578 | 44.53041 | 35971 ft | 404 kts | 268° |
| 2026-05-05 17:50 | 22.93311 | 44.46979 | 35971 ft | 405 kts | 268° |
| 2026-05-05 17:50 | 22.93042 | 44.40892 | 35971 ft | 405 kts | 268° |
| 2026-05-05 17:51 | 22.92769 | 44.34770 | 35971 ft | 405 kts | 267° |
| 2026-05-05 17:51 | 22.92495 | 44.28677 | 35972 ft | 406 kts | 267° |
| 2026-05-05 17:52 | 22.92219 | 44.22581 | 35972 ft | 406 kts | 267° |
| 2026-05-05 17:52 | 22.91941 | 44.16487 | 35972 ft | 406 kts | 267° |
| 2026-05-05 17:53 | 22.91661 | 44.10406 | 35972 ft | 406 kts | 267° |
| 2026-05-05 17:53 | 22.91375 | 44.04261 | 35972 ft | 407 kts | 267° |
| 2026-05-05 17:54 | 22.91090 | 43.98180 | 35971 ft | 407 kts | 267° |
| 2026-05-05 17:54 | 22.90801 | 43.92067 | 35971 ft | 407 kts | 267° |
| 2026-05-05 17:55 | 22.90509 | 43.85931 | 35971 ft | 408 kts | 267° |
| 2026-05-05 17:55 | 22.90214 | 43.79796 | 35971 ft | 408 kts | 267° |
| 2026-05-05 17:56 | 22.89918 | 43.73677 | 35971 ft | 408 kts | 267° |
| 2026-05-05 17:56 | 22.89618 | 43.67520 | 35971 ft | 409 kts | 267° |
| 2026-05-05 17:57 | 22.89317 | 43.61408 | 35971 ft | 409 kts | 267° |
| 2026-05-05 17:57 | 22.89013 | 43.55262 | 35971 ft | 409 kts | 267° |
| 2026-05-05 17:58 | 22.88705 | 43.49099 | 35971 ft | 410 kts | 267° |
| 2026-05-05 17:58 | 22.88394 | 43.42923 | 35971 ft | 410 kts | 267° |
| 2026-05-05 17:59 | 22.88082 | 43.36784 | 35971 ft | 410 kts | 267° |
| 2026-05-05 17:59 | 22.87767 | 43.30618 | 35973 ft | 410 kts | 267° |
| 2026-05-05 18:00 | 22.87449 | 43.24424 | 35972 ft | 410 kts | 267° |
| 2026-05-05 18:00 | 22.87130 | 43.18290 | 35972 ft | 411 kts | 267° |
| 2026-05-05 18:01 | 22.86806 | 43.12096 | 35971 ft | 412 kts | 267° |
| 2026-05-05 18:01 | 22.86481 | 43.05930 | 35971 ft | 413 kts | 267° |
| 2026-05-05 18:02 | 22.86150 | 42.99702 | 35971 ft | 415 kts | 267° |
| 2026-05-05 18:02 | 22.85817 | 42.93465 | 35971 ft | 417 kts | 267° |
| 2026-05-05 18:03 | 22.85481 | 42.87206 | 35972 ft | 417 kts | 267° |
| 2026-05-05 18:03 | 22.85140 | 42.80909 | 35972 ft | 417 kts | 267° |
| 2026-05-05 18:04 | 22.84800 | 42.74673 | 35971 ft | 417 kts | 267° |
| 2026-05-05 18:04 | 22.84455 | 42.68409 | 35972 ft | 417 kts | 267° |
| 2026-05-05 18:05 | 22.84108 | 42.62154 | 35976 ft | 417 kts | 267° |
| 2026-05-05 18:05 | 22.83758 | 42.55866 | 35983 ft | 417 kts | 267° |
| 2026-05-05 18:06 | 22.83406 | 42.49608 | 35994 ft | 417 kts | 267° |
| 2026-05-05 18:06 | 22.83054 | 42.43379 | 36007 ft | 417 kts | 267° |
| 2026-05-05 18:07 | 22.82696 | 42.37099 | 36028 ft | 417 kts | 267° |
| 2026-05-05 18:07 | 22.82337 | 42.30843 | 36056 ft | 417 kts | 267° |
| 2026-05-05 18:08 | 22.81976 | 42.24575 | 36084 ft | 417 kts | 267° |
| 2026-05-05 18:08 | 22.81613 | 42.18321 | 36109 ft | 417 kts | 267° |
| 2026-05-05 18:09 | 22.81247 | 42.12069 | 36124 ft | 417 kts | 267° |
| 2026-05-05 18:09 | 22.80880 | 42.05825 | 36131 ft | 417 kts | 267° |
| 2026-05-05 18:10 | 22.80511 | 41.99590 | 36134 ft | 417 kts | 267° |
| 2026-05-05 18:10 | 22.80138 | 41.93347 | 36135 ft | 417 kts | 267° |
| 2026-05-05 18:11 | 22.79679 | 41.87096 | 36136 ft | 417 kts | 265° |
| 2026-05-05 18:11 | 22.79085 | 41.80859 | 36135 ft | 417 kts | 265° |
| 2026-05-05 18:12 | 22.78484 | 41.74597 | 36135 ft | 417 kts | 265° |
| 2026-05-05 18:12 | 22.77888 | 41.68387 | 36135 ft | 417 kts | 265° |
| 2026-05-05 18:13 | 22.77286 | 41.62139 | 36135 ft | 417 kts | 265° |
| 2026-05-05 18:13 | 22.76686 | 41.55921 | 36135 ft | 417 kts | 265° |
| 2026-05-05 18:14 | 22.76082 | 41.49690 | 36135 ft | 417 kts | 265° |
| 2026-05-05 18:14 | 22.75474 | 41.43445 | 36135 ft | 417 kts | 265° |
| 2026-05-05 18:15 | 22.74834 | 41.37220 | 36135 ft | 417 kts | 263° |
| 2026-05-05 18:15 | 22.73727 | 41.31067 | 36136 ft | 418 kts | 257° |
| 2026-05-05 18:16 | 22.71999 | 41.25026 | 36136 ft | 419 kts | 251° |
| 2026-05-05 18:16 | 22.69884 | 41.19178 | 36143 ft | 419 kts | 250° |
| 2026-05-05 18:17 | 22.67739 | 41.13316 | 36154 ft | 419 kts | 250° |
| 2026-05-05 18:17 | 22.65587 | 41.07449 | 36160 ft | 419 kts | 250° |
| 2026-05-05 18:18 | 22.63436 | 41.01601 | 36162 ft | 419 kts | 250° |
| 2026-05-05 18:18 | 22.61278 | 40.95738 | 36163 ft | 421 kts | 250° |
| 2026-05-05 18:19 | 22.59110 | 40.89849 | 36163 ft | 423 kts | 250° |
| 2026-05-05 18:19 | 22.56925 | 40.83928 | 36163 ft | 424 kts | 250° |
| 2026-05-05 18:20 | 22.54719 | 40.77961 | 36160 ft | 425 kts | 250° |
| 2026-05-05 18:20 | 22.53632 | 40.75024 | 36011 ft | 422 kts | 250° |
| 2026-05-05 18:20 | 22.52559 | 40.72126 | 35633 ft | 420 kts | 250° |
| 2026-05-05 18:20 | 22.51478 | 40.69206 | 35169 ft | 418 kts | 250° |
| 2026-05-05 18:21 | 22.50391 | 40.66272 | 34729 ft | 416 kts | 250° |
| 2026-05-05 18:21 | 22.49333 | 40.63419 | 34321 ft | 414 kts | 250° |
| 2026-05-05 18:21 | 22.48260 | 40.60527 | 33910 ft | 411 kts | 250° |
| 2026-05-05 18:21 | 22.47213 | 40.57707 | 33480 ft | 409 kts | 250° |
| 2026-05-05 18:22 | 22.46146 | 40.54833 | 32659 ft | 418 kts | 250° |
| 2026-05-05 18:22 | 22.45041 | 40.51857 | 31531 ft | 434 kts | 250° |
| 2026-05-05 18:22 | 22.43915 | 40.48827 | 30520 ft | 445 kts | 250° |
| 2026-05-05 18:22 | 22.42753 | 40.45706 | 29559 ft | 454 kts | 250° |
| 2026-05-05 18:23 | 22.41573 | 40.42540 | 28692 ft | 460 kts | 250° |
| 2026-05-05 18:23 | 22.40375 | 40.39330 | 28063 ft | 460 kts | 250° |
| 2026-05-05 18:23 | 22.39195 | 40.36171 | 27505 ft | 458 kts | 250° |
| 2026-05-05 18:23 | 22.38012 | 40.33003 | 26983 ft | 456 kts | 250° |
| 2026-05-05 18:24 | 22.36828 | 40.29834 | 26511 ft | 453 kts | 250° |
| 2026-05-05 18:24 | 22.35663 | 40.26716 | 26068 ft | 449 kts | 250° |
| 2026-05-05 18:24 | 22.34505 | 40.23618 | 25638 ft | 445 kts | 250° |
| 2026-05-05 18:24 | 22.33344 | 40.20511 | 25213 ft | 441 kts | 250° |
| 2026-05-05 18:25 | 22.32197 | 40.17444 | 24795 ft | 438 kts | 250° |
| 2026-05-05 18:25 | 22.31428 | 40.15389 | 24517 ft | 435 kts | 250° |
| 2026-05-05 18:25 | 22.29912 | 40.11339 | 23969 ft | 430 kts | 250° |
| 2026-05-05 18:25 | 22.28769 | 40.08290 | 23558 ft | 427 kts | 250° |
| 2026-05-05 18:26 | 22.27625 | 40.05270 | 23208 ft | 422 kts | 248° |
| 2026-05-05 18:26 | 22.26309 | 40.02282 | 23147 ft | 418 kts | 244° |
| 2026-05-05 18:26 | 22.24797 | 39.99421 | 23043 ft | 420 kts | 239° |
| 2026-05-05 18:26 | 22.23069 | 39.96538 | 22718 ft | 417 kts | 238° |
| 2026-05-05 18:27 | 22.21361 | 39.93761 | 22381 ft | 412 kts | 238° |
| 2026-05-05 18:27 | 22.19724 | 39.91203 | 22076 ft | 407 kts | 232° |
| 2026-05-05 18:27 | 22.17936 | 39.88755 | 21765 ft | 401 kts | 237° |
| 2026-05-05 18:27 | 22.16433 | 39.86242 | 21472 ft | 395 kts | 239° |
| 2026-05-05 18:28 | 22.13503 | 39.81150 | 20878 ft | 386 kts | 239° |
| 2026-05-05 18:28 | 22.12067 | 39.78724 | 20600 ft | 381 kts | 238° |
| 2026-05-05 18:28 | 22.10624 | 39.76322 | 20325 ft | 376 kts | 238° |
| 2026-05-05 18:29 | 22.09192 | 39.73961 | 20053 ft | 371 kts | 238° |
| 2026-05-05 18:29 | 22.07695 | 39.71503 | 19769 ft | 367 kts | 237° |
| 2026-05-05 18:29 | 22.06211 | 39.69075 | 19490 ft | 362 kts | 237° |
| 2026-05-05 18:29 | 22.04784 | 39.66743 | 19221 ft | 357 kts | 237° |
| 2026-05-05 18:30 | 22.03394 | 39.64473 | 18969 ft | 352 kts | 237° |
| 2026-05-05 18:30 | 22.02046 | 39.62273 | 18737 ft | 347 kts | 237° |
| 2026-05-05 18:30 | 22.00681 | 39.60048 | 18489 ft | 343 kts | 237° |
| 2026-05-05 18:30 | 21.99294 | 39.57785 | 17856 ft | 350 kts | 237° |
| 2026-05-05 18:31 | 21.97954 | 39.55600 | 17125 ft | 348 kts | 237° |
| 2026-05-05 18:31 | 21.96603 | 39.53400 | 16414 ft | 346 kts | 237° |
| 2026-05-05 18:31 | 21.95285 | 39.51256 | 15715 ft | 344 kts | 236° |
| 2026-05-05 18:31 | 21.94055 | 39.49075 | 15016 ft | 342 kts | 242° |
| 2026-05-05 18:32 | 21.92996 | 39.46795 | 14315 ft | 339 kts | 244° |
| 2026-05-05 18:32 | 21.91996 | 39.44539 | 13623 ft | 337 kts | 244° |
| 2026-05-05 18:32 | 21.90999 | 39.42274 | 12924 ft | 335 kts | 244° |
| 2026-05-05 18:32 | 21.89996 | 39.40005 | 12218 ft | 332 kts | 244° |
| 2026-05-05 18:33 | 21.89008 | 39.37780 | 11519 ft | 330 kts | 244° |
| 2026-05-05 18:33 | 21.88025 | 39.35576 | 10822 ft | 328 kts | 244° |
| 2026-05-05 18:33 | 21.87044 | 39.33378 | 10121 ft | 326 kts | 244° |
| 2026-05-05 18:33 | 21.86055 | 39.31161 | 9411 ft | 324 kts | 244° |
| 2026-05-05 18:34 | 21.85096 | 39.29014 | 8719 ft | 322 kts | 244° |
| 2026-05-05 18:34 | 21.84136 | 39.26866 | 8140 ft | 316 kts | 244° |
| 2026-05-05 18:34 | 21.83196 | 39.24763 | 7766 ft | 304 kts | 244° |
| 2026-05-05 18:34 | 21.82105 | 39.22920 | 7456 ft | 291 kts | 221° |
| 2026-05-05 18:35 | 21.80376 | 39.21914 | 7030 ft | 280 kts | 187° |
| 2026-05-05 18:35 | 21.78522 | 39.22105 | 6684 ft | 263 kts | 153° |
| 2026-05-05 18:35 | 21.76952 | 39.23021 | 6450 ft | 248 kts | 147° |
| 2026-05-05 18:35 | 21.75477 | 39.23917 | 6226 ft | 236 kts | 150° |
| 2026-05-05 18:36 | 21.74030 | 39.24671 | 5985 ft | 228 kts | 153° |
| 2026-05-05 18:36 | 21.72586 | 39.25328 | 5629 ft | 226 kts | 155° |
| 2026-05-05 18:36 | 21.71137 | 39.25939 | 5238 ft | 226 kts | 156° |
| 2026-05-05 18:36 | 21.69674 | 39.26533 | 4850 ft | 225 kts | 157° |
| 2026-05-05 18:37 | 21.68202 | 39.27121 | 4464 ft | 225 kts | 157° |
| 2026-05-05 18:37 | 21.66736 | 39.27702 | 4108 ft | 224 kts | 157° |
| 2026-05-05 18:37 | 21.65285 | 39.28276 | 4012 ft | 223 kts | 157° |
| 2026-05-05 18:37 | 21.63834 | 39.28849 | 4013 ft | 225 kts | 157° |
| 2026-05-05 18:38 | 21.62367 | 39.29428 | 4010 ft | 225 kts | 157° |
| 2026-05-05 18:38 | 21.60889 | 39.30007 | 4008 ft | 225 kts | 158° |
| 2026-05-05 18:38 | 21.59423 | 39.30580 | 4008 ft | 225 kts | 158° |
| 2026-05-05 18:38 | 21.57965 | 39.31151 | 4010 ft | 225 kts | 158° |
| 2026-05-05 18:39 | 21.56497 | 39.31726 | 4016 ft | 225 kts | 158° |
| 2026-05-05 18:39 | 21.55029 | 39.32301 | 4011 ft | 225 kts | 158° |
| 2026-05-05 18:39 | 21.53563 | 39.32875 | 4009 ft | 225 kts | 158° |
| 2026-05-05 18:39 | 21.52099 | 39.33447 | 3901 ft | 221 kts | 157° |
| 2026-05-05 18:40 | 21.50680 | 39.34003 | 3754 ft | 214 kts | 157° |
| 2026-05-05 18:40 | 21.49313 | 39.34537 | 3588 ft | 207 kts | 157° |
| 2026-05-05 18:40 | 21.47976 | 39.35061 | 3342 ft | 205 kts | 157° |
| 2026-05-05 18:40 | 21.46642 | 39.35583 | 3080 ft | 203 kts | 158° |
| 2026-05-05 18:41 | 21.45322 | 39.36101 | 3014 ft | 203 kts | 158° |
| 2026-05-05 18:41 | 21.43991 | 39.36623 | 3013 ft | 205 kts | 158° |
| 2026-05-05 18:41 | 21.42664 | 39.37143 | 3010 ft | 205 kts | 158° |
| 2026-05-05 18:41 | 21.41326 | 39.37669 | 3008 ft | 205 kts | 158° |
| 2026-05-05 18:42 | 21.40000 | 39.38189 | 2999 ft | 198 kts | 157° |
| 2026-05-05 18:42 | 21.38711 | 39.38694 | 3003 ft | 197 kts | 157° |
| 2026-05-05 18:42 | 21.37429 | 39.39197 | 3006 ft | 197 kts | 157° |
| 2026-05-05 18:42 | 21.36086 | 39.39512 | 3000 ft | 200 kts | 181° |
| 2026-05-05 18:43 | 21.34779 | 39.39085 | 3001 ft | 200 kts | 215° |
| 2026-05-05 18:43 | 21.33869 | 39.37983 | 3007 ft | 197 kts | 246° |
| 2026-05-05 18:43 | 21.33355 | 39.36621 | 3018 ft | 196 kts | 253° |
| 2026-05-05 18:43 | 21.32924 | 39.35247 | 3012 ft | 196 kts | 254° |
| 2026-05-05 18:44 | 21.32519 | 39.33844 | 3007 ft | 194 kts | 264° |
| 2026-05-05 18:44 | 21.32612 | 39.32435 | 3001 ft | 188 kts | 294° |
| 2026-05-05 18:44 | 21.33323 | 39.31286 | 3005 ft | 182 kts | 322° |
| 2026-05-05 18:44 | 21.34370 | 39.30601 | 3005 ft | 175 kts | 340° |
| 2026-05-05 18:45 | 21.35493 | 39.30170 | 3009 ft | 166 kts | 344° |
| 2026-05-05 18:45 | 21.36550 | 39.29805 | 2990 ft | 157 kts | 345° |
| 2026-05-05 18:45 | 21.37594 | 39.29444 | 3001 ft | 157 kts | 345° |
| 2026-05-05 18:45 | 21.38624 | 39.29078 | 3005 ft | 157 kts | 344° |
| 2026-05-05 18:46 | 21.39665 | 39.28698 | 3006 ft | 157 kts | 343° |
| 2026-05-05 18:46 | 21.40691 | 39.28313 | 3007 ft | 157 kts | 343° |
| 2026-05-05 18:46 | 21.41722 | 39.27917 | 3007 ft | 157 kts | 343° |
| 2026-05-05 18:46 | 21.42730 | 39.27525 | 3007 ft | 157 kts | 342° |
| 2026-05-05 18:47 | 21.43757 | 39.27120 | 3007 ft | 157 kts | 342° |
| 2026-05-05 18:47 | 21.44778 | 39.26715 | 2932 ft | 157 kts | 342° |
| 2026-05-05 18:47 | 21.45806 | 39.26305 | 2827 ft | 157 kts | 342° |
| 2026-05-05 18:47 | 21.46825 | 39.25897 | 2728 ft | 156 kts | 342° |
| 2026-05-05 18:48 | 21.47839 | 39.25492 | 2630 ft | 156 kts | 342° |
| 2026-05-05 18:48 | 21.48857 | 39.25085 | 2527 ft | 156 kts | 342° |
| 2026-05-05 18:48 | 21.49862 | 39.24685 | 2374 ft | 155 kts | 342° |
| 2026-05-05 18:48 | 21.50873 | 39.24282 | 2192 ft | 154 kts | 342° |
| 2026-05-05 18:49 | 21.51878 | 39.23883 | 2128 ft | 154 kts | 342° |
| 2026-05-05 18:49 | 21.52878 | 39.23488 | 2114 ft | 154 kts | 342° |
| 2026-05-05 18:49 | 21.53880 | 39.23091 | 2107 ft | 154 kts | 342° |
| 2026-05-05 18:49 | 21.54881 | 39.22694 | 2121 ft | 154 kts | 342° |
| 2026-05-05 18:50 | 21.55900 | 39.22291 | 2147 ft | 154 kts | 342° |
| 2026-05-05 18:50 | 21.56871 | 39.21907 | 2097 ft | 148 kts | 342° |
| 2026-05-05 18:50 | 21.57829 | 39.21529 | 1906 ft | 146 kts | 342° |
| 2026-05-05 18:50 | 21.58780 | 39.21154 | 1711 ft | 145 kts | 342° |
| 2026-05-05 18:51 | 21.59725 | 39.20781 | 1520 ft | 144 kts | 342° |
| 2026-05-05 18:51 | 21.60660 | 39.20413 | 1329 ft | 144 kts | 342° |
| 2026-05-05 18:51 | 21.61604 | 39.20041 | 1137 ft | 143 kts | 342° |
| 2026-05-05 18:51 | 21.62534 | 39.19672 | 941 ft | 143 kts | 341° |
| 2026-05-05 18:52 | 21.63459 | 39.19294 | 726 ft | 142 kts | 341° |
| 2026-05-05 18:52 | 21.64376 | 39.18930 | 528 ft | 141 kts | 341° |
| 2026-05-05 18:52 | 21.65302 | 39.18572 | 363 ft | 141 kts | 342° |
| 2026-05-05 18:52 | 21.66227 | 39.18209 | 186 ft | 141 kts | 341° |
| 2026-05-05 18:53 | 21.67125 | 39.17860 | 70 ft | 136 kts | 341° |
| 2026-05-05 18:53 | 21.67931 | 39.17545 | 62 ft | 104 kts | 339° |
| 2026-05-05 18:53 | 21.68442 | 39.17343 | 61 ft | 52 kts | 340° |
| 2026-05-05 18:53 | 21.68684 | 39.17247 | 61 ft | 31 kts | 335° |
| 2026-05-05 18:54 | 21.68851 | 39.17116 | 61 ft | 29 kts | 312° |
| 2026-05-05 18:54 | 21.68945 | 39.16991 | 61 ft | 9 kts | 296° |
| 2026-05-05 18:54 | 21.68949 | 39.16981 | 61 ft | 0 kts | 288° |
| 2026-05-05 18:57 | 21.68951 | 39.16971 | 61 ft | 2 kts | 279° |
| 2026-05-05 18:57 | 21.68947 | 39.16940 | 61 ft | 5 kts | 249° |
| 2026-05-05 18:58 | 21.68919 | 39.16927 | 61 ft | 6 kts | 179° |
| 2026-05-05 18:58 | 21.68870 | 39.16941 | 61 ft | 6 kts | 161° |
| 2026-05-05 18:58 | 21.68842 | 39.16952 | 61 ft | 0 kts | 160° |
| 2026-05-05 18:58 | 21.68834 | 39.16955 | 61 ft | 1 kts | 159° |
| 2026-05-05 18:59 | 21.68830 | 39.16957 | 61 ft | 0 kts | 159° |
| 2026-05-05 19:00 | 21.68818 | 39.16961 | 61 ft | 4 kts | 159° |
| 2026-05-05 19:00 | 21.68775 | 39.16978 | 61 ft | 8 kts | 160° |
| 2026-05-05 19:00 | 21.68712 | 39.17003 | 61 ft | 11 kts | 160° |
| 2026-05-05 19:00 | 21.68642 | 39.17031 | 61 ft | 12 kts | 160° |
| 2026-05-05 19:01 | 21.68551 | 39.17066 | 61 ft | 15 kts | 160° |
| 2026-05-05 19:01 | 21.68467 | 39.17102 | 61 ft | 11 kts | 161° |
| 2026-05-05 19:01 | 21.68383 | 39.17133 | 61 ft | 13 kts | 160° |
| 2026-05-05 19:01 | 21.68296 | 39.17166 | 61 ft | 8 kts | 160° |
| 2026-05-05 19:02 | 21.68244 | 39.17187 | 61 ft | 7 kts | 160° |
| 2026-05-05 19:02 | 21.68189 | 39.17209 | 61 ft | 4 kts | 159° |
| 2026-05-05 19:02 | 21.68174 | 39.17215 | 61 ft | 4 kts | 160° |
| 2026-05-05 19:02 | 21.68129 | 39.17233 | 61 ft | 7 kts | 160° |
| 2026-05-05 19:03 | 21.68070 | 39.17256 | 61 ft | 10 kts | 161° |
| 2026-05-05 19:03 | 21.67997 | 39.17233 | 61 ft | 10 kts | 237° |
| 2026-05-05 19:03 | 21.67968 | 39.17164 | 61 ft | 10 kts | 249° |
| 2026-05-05 19:03 | 21.67945 | 39.17094 | 61 ft | 8 kts | 250° |
| 2026-05-05 19:04 | 21.67930 | 39.17053 | 61 ft | 7 kts | 249° |
| 2026-05-05 19:04 | 21.67914 | 39.17006 | 61 ft | 8 kts | 249° |
| 2026-05-05 19:04 | 21.67889 | 39.16935 | 61 ft | 11 kts | 249° |
| 2026-05-05 19:04 | 21.67868 | 39.16872 | 61 ft | 6 kts | 250° |
| 2026-05-05 19:05 | 21.67857 | 39.16839 | 61 ft | 5 kts | 250° |
| 2026-05-05 19:05 | 21.67839 | 39.16787 | 61 ft | 9 kts | 250° |
| 2026-05-05 19:05 | 21.67813 | 39.16711 | 61 ft | 12 kts | 250° |
| 2026-05-05 19:05 | 21.67780 | 39.16622 | 61 ft | 9 kts | 244° |
| 2026-05-05 19:06 | 21.67760 | 39.16560 | 61 ft | 10 kts | 250° |
| 2026-05-05 19:06 | 21.67734 | 39.16481 | 61 ft | 12 kts | 249° |
| 2026-05-05 19:06 | 21.67711 | 39.16414 | 61 ft | 10 kts | 250° |
| 2026-05-05 19:06 | 21.67697 | 39.16375 | 61 ft | 5 kts | 250° |
| 2026-05-05 19:07 | 21.67679 | 39.16322 | 61 ft | 9 kts | 250° |
| 2026-05-05 19:07 | 21.67653 | 39.16244 | 61 ft | 10 kts | 249° |
| 2026-05-05 19:07 | 21.67634 | 39.16190 | 61 ft | 5 kts | 249° |
| 2026-05-05 19:07 | 21.67625 | 39.16166 | 61 ft | 2 kts | 250° |
| 2026-05-05 19:08 | 21.67619 | 39.16149 | 61 ft | 4 kts | 241° |
| 2026-05-05 19:08 | 21.67580 | 39.16125 | 61 ft | 8 kts | 187° |
| 2026-05-05 19:08 | 21.67516 | 39.16138 | 61 ft | 7 kts | 162° |
| 2026-05-05 19:08 | 21.67484 | 39.16150 | 61 ft | 5 kts | 161° |
| 2026-05-05 19:09 | 21.67458 | 39.16159 | 61 ft | 2 kts | 161° |
| 2026-05-05 19:09 | 21.67423 | 39.16172 | 61 ft | 7 kts | 159° |
| 2026-05-05 19:09 | 21.67367 | 39.16195 | 61 ft | 9 kts | 159° |
| 2026-05-05 19:09 | 21.67295 | 39.16224 | 61 ft | 13 kts | 160° |
| 2026-05-05 19:10 | 21.67209 | 39.16269 | 61 ft | 14 kts | 130° |
| 2026-05-05 19:10 | 21.67168 | 39.16366 | 61 ft | 15 kts | 141° |
| 2026-05-05 19:10 | 21.67065 | 39.16415 | 61 ft | 16 kts | 159° |
| 2026-05-05 19:10 | 21.66977 | 39.16449 | 61 ft | 9 kts | 159° |
| 2026-05-05 19:11 | 21.66911 | 39.16478 | 61 ft | 9 kts | 146° |
| 2026-05-05 19:11 | 21.66889 | 39.16543 | 61 ft | 9 kts | 93° |
| 2026-05-05 19:11 | 21.66899 | 39.16608 | 61 ft | 8 kts | 88° |
| 2026-05-05 19:11 | 21.66893 | 39.16662 | 61 ft | 4 kts | 99° |
| 2026-05-05 19:12 | 21.66900 | 39.16687 | 61 ft | 4 kts | 43° |
| 2026-05-05 19:12 | 21.66930 | 39.16704 | 61 ft | 5 kts | 20° |
| 2026-05-05 19:12 | 21.66959 | 39.16711 | 61 ft | 3 kts | 11° |
| 2026-05-05 19:12 | 21.66976 | 39.16715 | 61 ft | 2 kts | 11° |
| 2026-05-05 19:13 | 21.66977 | 39.16715 | 61 ft | 0 kts | 11° |